Time,TemperatureF,DewpointF,PressureIn,WindDirection,WindDirectionDegrees,WindSpeedMPH,WindSpeedGustMPH,Humidity,HourlyPrecipIn,Conditions,Clouds,dailyrainin,SoftwareType,DateUTC
2013-10-21 00:01:00,58.0,43.8,29.77,WSW,252,1.0,1.0,59,0.00,,---,0.00,VWS V14.01,2013-10-21 05:01:00,
2013-10-21 00:06:00,58.0,43.3,29.77,West,259,1.0,1.0,58,0.00,,---,0.00,VWS V14.01,2013-10-21 05:06:00,
2013-10-21 00:11:00,58.0,43.3,29.77,WNW,292,0.0,0.0,58,0.00,,---,0.00,VWS V14.01,2013-10-21 05:11:00,
2013-10-21 00:16:00,57.9,43.7,29.77,WSW,248,0.0,0.0,59,0.00,,---,0.00,VWS V14.01,2013-10-21 05:16:00,
2013-10-21 00:21:00,57.8,43.6,29.77,West,260,0.0,1.0,59,0.00,,---,0.00,VWS V14.01,2013-10-21 05:21:00,
2013-10-21 00:26:00,57.6,43.4,29.76,West,263,1.0,1.0,59,0.00,,---,0.00,VWS V14.01,2013-10-21 05:26:00,
2013-10-21 00:31:00,57.5,43.3,29.76,WSW,254,4.0,4.0,59,0.00,,---,0.00,VWS V14.01,2013-10-21 05:31:00,
2013-10-21 00:36:00,57.3,43.5,29.76,WSW,258,1.0,1.0,60,0.00,,---,0.00,VWS V14.01,2013-10-21 05:36:00,
2013-10-21 00:41:00,57.1,43.4,29.76,SW,218,1.0,1.0,60,0.00,,---,0.00,VWS V14.01,2013-10-21 05:41:00,
2013-10-21 00:46:00,56.9,43.6,29.76,SSW,200,1.0,1.0,61,0.00,,---,0.00,VWS V14.01,2013-10-21 05:46:00,
2013-10-21 00:51:00,56.5,44.5,29.76,West,269,2.0,2.0,64,0.00,,---,0.00,VWS V14.01,2013-10-21 05:51:00,
2013-10-21 00:56:00,56.0,44.0,29.77,West,269,0.0,0.0,64,0.00,,---,0.00,VWS V14.01,2013-10-21 05:56:00,
2013-10-21 01:01:00,55.7,43.7,29.77,West,269,0.0,0.0,64,0.00,,---,0.00,VWS V14.01,2013-10-21 06:01:00,
2013-10-21 01:06:00,55.3,44.5,29.77,SW,229,1.0,1.0,67,0.00,,---,0.00,VWS V14.01,2013-10-21 06:06:00,
2013-10-21 01:10:00,54.8,44.1,29.77,SW,229,1.0,1.0,67,0.00,,---,0.00,VWS V14.01,2013-10-21 06:10:00,
2013-10-21 01:15:00,54.6,44.3,29.77,SW,229,1.0,1.0,68,0.00,,---,0.00,VWS V14.01,2013-10-21 06:15:00,
2013-10-21 01:20:00,54.4,44.5,29.77,SW,229,0.0,0.0,69,0.00,,---,0.00,VWS V14.01,2013-10-21 06:20:00,
2013-10-21 01:25:00,54.2,44.3,29.77,SW,229,0.0,0.0,69,0.00,,---,0.00,VWS V14.01,2013-10-21 06:25:00,
2013-10-21 01:30:00,54.1,44.2,29.77,SW,229,0.0,0.0,69,0.00,,---,0.00,VWS V14.01,2013-10-21 06:30:00,
2013-10-21 01:35:00,54.0,44.8,29.77,SW,229,0.0,0.0,71,0.00,,---,0.00,VWS V14.01,2013-10-21 06:35:00,
2013-10-21 01:40:00,53.9,44.7,29.78,SW,229,0.0,0.0,71,0.00,,---,0.00,VWS V14.01,2013-10-21 06:40:00,
2013-10-21 01:45:00,53.7,44.2,29.78,SW,229,0.0,0.0,70,0.00,,---,0.00,VWS V14.01,2013-10-21 06:45:00,
2013-10-21 01:50:00,53.5,44.3,29.78,SW,229,2.0,2.0,71,0.00,,---,0.00,VWS V14.01,2013-10-21 06:50:00,
2013-10-21 01:55:00,53.3,44.2,29.78,West,265,1.0,1.0,71,0.00,,---,0.00,VWS V14.01,2013-10-21 06:55:00,
2013-10-21 02:00:00,53.2,44.4,29.78,West,265,0.0,0.0,72,0.00,,---,0.00,VWS V14.01,2013-10-21 07:00:00,
2013-10-21 02:05:00,53.1,44.7,29.78,West,265,0.0,0.0,73,0.00,,---,0.00,VWS V14.01,2013-10-21 07:05:00,
2013-10-21 02:10:00,53.0,44.6,29.78,NNW,348,1.0,2.0,73,0.00,,---,0.00,VWS V14.01,2013-10-21 07:10:00,
2013-10-21 02:15:00,53.0,45.0,29.78,South,187,4.0,5.0,74,0.00,,---,0.00,VWS V14.01,2013-10-21 07:15:00,
2013-10-21 02:20:00,53.2,45.8,29.78,SSW,212,0.0,0.0,76,0.00,,---,0.00,VWS V14.01,2013-10-21 07:20:00,
2013-10-21 02:25:00,53.5,46.1,29.79,NW,317,1.0,4.0,76,0.00,,---,0.00,VWS V14.01,2013-10-21 07:25:00,
2013-10-21 02:30:00,53.9,46.5,29.79,WNW,292,0.0,0.0,76,0.00,,---,0.00,VWS V14.01,2013-10-21 07:30:00,
2013-10-21 02:35:00,54.1,46.4,29.79,WNW,292,0.0,0.0,75,0.00,,---,0.00,VWS V14.01,2013-10-21 07:35:00,
2013-10-21 02:40:00,54.3,46.6,29.79,WNW,292,1.0,1.0,75,0.00,,---,0.00,VWS V14.01,2013-10-21 07:40:00,
2013-10-21 02:45:00,54.4,46.7,29.79,WNW,292,1.0,1.0,75,0.00,,---,0.00,VWS V14.01,2013-10-21 07:45:00,
2013-10-21 02:50:00,54.4,46.7,29.79,WNW,292,0.0,0.0,75,0.00,,---,0.00,VWS V14.01,2013-10-21 07:50:00,
2013-10-21 02:55:00,54.4,46.7,29.79,WNW,292,0.0,0.0,75,0.00,,---,0.00,VWS V14.01,2013-10-21 07:55:00,
2013-10-21 03:00:00,54.4,46.7,29.79,WNW,292,0.0,2.0,75,0.00,,---,0.00,VWS V14.01,2013-10-21 08:00:00,
2013-10-21 03:05:00,54.3,46.6,29.79,West,274,0.0,1.0,75,0.00,,---,0.00,VWS V14.01,2013-10-21 08:05:00,
2013-10-21 03:10:00,54.3,46.9,29.80,West,274,0.0,0.0,76,0.00,,---,0.00,VWS V14.01,2013-10-21 08:10:00,
2013-10-21 03:15:00,54.2,46.8,29.80,West,274,0.0,0.0,76,0.00,,---,0.00,VWS V14.01,2013-10-21 08:15:00,
2013-10-21 03:20:00,54.2,46.8,29.80,West,274,0.0,0.0,76,0.00,,---,0.00,VWS V14.01,2013-10-21 08:20:00,
2013-10-21 03:25:00,54.2,46.8,29.80,West,274,0.0,0.0,76,0.00,,---,0.00,VWS V14.01,2013-10-21 08:25:00,
2013-10-21 03:30:00,54.1,46.7,29.80,West,274,0.0,0.0,76,0.00,,---,0.00,VWS V14.01,2013-10-21 08:30:00,
2013-10-21 03:35:00,54.1,47.1,29.80,West,274,0.0,0.0,77,0.00,,---,0.00,VWS V14.01,2013-10-21 08:35:00,
2013-10-21 03:40:00,54.0,47.0,29.81,West,274,0.0,0.0,77,0.00,,---,0.00,VWS V14.01,2013-10-21 08:40:00,
2013-10-21 03:45:00,53.9,46.9,29.81,West,274,0.0,0.0,77,0.00,,---,0.00,VWS V14.01,2013-10-21 08:45:00,
2013-10-21 03:50:00,53.8,46.8,29.81,West,274,1.0,1.0,77,0.00,,---,0.00,VWS V14.01,2013-10-21 08:50:00,
2013-10-21 03:55:00,53.7,46.3,29.81,West,274,0.0,1.0,76,0.00,,---,0.00,VWS V14.01,2013-10-21 08:55:00,
2013-10-21 04:00:00,53.7,46.0,29.81,West,274,0.0,0.0,75,0.00,,---,0.00,VWS V14.01,2013-10-21 09:00:00,
2013-10-21 04:05:00,53.6,45.9,29.81,West,274,0.0,0.0,75,0.00,,---,0.00,VWS V14.01,2013-10-21 09:05:00,
2013-10-21 04:10:00,53.6,45.5,29.81,West,274,0.0,0.0,74,0.00,,---,0.00,VWS V14.01,2013-10-21 09:10:00,
2013-10-21 04:15:00,53.5,45.4,29.81,West,274,3.0,3.0,74,0.00,,---,0.00,VWS V14.01,2013-10-21 09:15:00,
2013-10-21 04:20:00,53.5,45.4,29.81,NW,321,1.0,2.0,74,0.00,,---,0.00,VWS V14.01,2013-10-21 09:20:00,
2013-10-21 04:25:00,53.3,45.2,29.81,NW,324,0.0,0.0,74,0.00,,---,0.00,VWS V14.01,2013-10-21 09:25:00,
2013-10-21 04:30:00,53.3,45.2,29.81,NW,324,0.0,1.0,74,0.00,,---,0.00,VWS V14.01,2013-10-21 09:30:00,
2013-10-21 04:35:00,53.2,45.5,29.81,East,93,2.0,3.0,75,0.00,,---,0.00,VWS V14.01,2013-10-21 09:35:00,
2013-10-21 04:40:00,53.0,45.3,29.82,NNW,330,2.0,2.0,75,0.00,,---,0.00,VWS V14.01,2013-10-21 09:40:00,
2013-10-21 04:45:00,53.0,45.3,29.82,NNW,327,1.0,2.0,75,0.00,,---,0.00,VWS V14.01,2013-10-21 09:45:00,
2013-10-21 04:50:00,52.8,44.8,29.82,NW,323,0.0,2.0,74,0.00,,---,0.00,VWS V14.01,2013-10-21 09:50:00,
2013-10-21 04:55:00,52.7,45.0,29.82,WNW,301,0.0,2.0,75,0.00,,---,0.00,VWS V14.01,2013-10-21 09:55:00,
2013-10-21 05:00:00,52.6,44.9,29.82,NW,314,0.0,1.0,75,0.00,,---,0.00,VWS V14.01,2013-10-21 10:00:00,
2013-10-21 05:05:00,52.4,44.7,29.82,West,271,1.0,1.0,75,0.00,,---,0.00,VWS V14.01,2013-10-21 10:05:00,
2013-10-21 05:10:00,52.2,44.5,29.83,West,267,2.0,2.0,75,0.00,,---,0.00,VWS V14.01,2013-10-21 10:10:00,
2013-10-21 05:15:00,52.1,44.8,29.83,West,269,0.0,0.0,76,0.00,,---,0.00,VWS V14.01,2013-10-21 10:15:00,
2013-10-21 05:20:00,52.0,44.7,29.83,WSW,254,0.0,1.0,76,0.00,,---,0.00,VWS V14.01,2013-10-21 10:20:00,
2013-10-21 05:25:00,51.8,44.5,29.83,West,271,1.0,1.0,76,0.00,,---,0.00,VWS V14.01,2013-10-21 10:25:00,
2013-10-21 05:30:00,51.7,44.7,29.83,West,271,1.0,2.0,77,0.00,,---,0.00,VWS V14.01,2013-10-21 10:30:00,
2013-10-21 05:35:00,51.5,44.5,29.83,West,271,1.0,1.0,77,0.00,,---,0.00,VWS V14.01,2013-10-21 10:35:00,
2013-10-21 05:40:00,51.4,44.4,29.84,West,271,0.0,0.0,77,0.00,,---,0.00,VWS V14.01,2013-10-21 10:40:00,
2013-10-21 05:45:00,51.3,44.3,29.84,West,273,0.0,1.0,77,0.00,,---,0.00,VWS V14.01,2013-10-21 10:45:00,
2013-10-21 05:50:00,51.1,43.8,29.84,West,273,0.0,0.0,76,0.00,,---,0.00,VWS V14.01,2013-10-21 10:50:00,
2013-10-21 05:55:00,50.8,43.2,29.84,North,360,1.0,1.0,75,0.00,,---,0.00,VWS V14.01,2013-10-21 10:55:00,
2013-10-21 06:00:00,50.4,42.8,29.84,NNW,338,2.0,2.0,75,0.00,,---,0.00,VWS V14.01,2013-10-21 11:00:00,
2013-10-21 06:05:00,49.9,42.3,29.84,NNW,338,0.0,2.0,75,0.00,,---,0.00,VWS V14.01,2013-10-21 11:05:00,
2013-10-21 06:10:00,49.7,42.5,29.85,WNW,298,0.0,1.0,76,0.00,,---,0.00,VWS V14.01,2013-10-21 11:10:00,
2013-10-21 06:15:00,49.3,42.4,29.85,WSW,249,0.0,0.0,77,0.00,,---,0.00,VWS V14.01,2013-10-21 11:15:00,
2013-10-21 06:20:00,49.0,42.1,29.85,WSW,238,0.0,1.0,77,0.00,,---,0.00,VWS V14.01,2013-10-21 11:20:00,
2013-10-21 06:25:00,48.8,42.3,29.86,WSW,238,0.0,0.0,78,0.00,,---,0.00,VWS V14.01,2013-10-21 11:25:00,
2013-10-21 06:30:00,48.5,41.6,29.86,WSW,253,0.0,1.0,77,0.00,,---,0.00,VWS V14.01,2013-10-21 11:30:00,
2013-10-21 06:35:00,48.2,41.3,29.86,SW,219,1.0,2.0,77,0.00,,---,0.00,VWS V14.01,2013-10-21 11:35:00,
2013-10-21 06:40:00,47.9,41.0,29.87,SW,227,0.0,1.0,77,0.00,,---,0.00,VWS V14.01,2013-10-21 11:40:00,
2013-10-21 06:45:00,47.7,41.2,29.87,SW,227,0.0,0.0,78,0.00,,---,0.00,VWS V14.01,2013-10-21 11:45:00,
2013-10-21 06:50:00,47.3,40.8,29.87,West,263,0.0,2.0,78,0.00,,---,0.00,VWS V14.01,2013-10-21 11:50:00,
2013-10-21 06:55:00,47.0,40.5,29.88,West,269,0.0,1.0,78,0.00,,---,0.00,VWS V14.01,2013-10-21 11:55:00,
2013-10-21 07:00:00,46.6,40.5,29.88,West,273,1.0,1.0,79,0.00,,---,0.00,VWS V14.01,2013-10-21 12:00:00,
2013-10-21 07:05:00,46.3,39.8,29.88,WNW,297,1.0,1.0,78,0.00,,---,0.00,VWS V14.01,2013-10-21 12:05:00,
2013-10-21 07:10:00,46.0,39.5,29.89,WNW,297,1.0,1.0,78,0.00,,---,0.00,VWS V14.01,2013-10-21 12:10:00,
2013-10-21 07:15:00,45.8,39.7,29.89,WNW,297,0.0,1.0,79,0.00,,---,0.00,VWS V14.01,2013-10-21 12:15:00,
2013-10-21 07:20:00,45.5,39.4,29.89,WNW,296,0.0,0.0,79,0.00,,---,0.00,VWS V14.01,2013-10-21 12:20:00,
2013-10-21 07:25:00,45.3,39.2,29.89,WNW,298,0.0,1.0,79,0.00,,---,0.00,VWS V14.01,2013-10-21 12:25:00,
2013-10-21 07:30:00,45.1,39.0,29.89,WNW,298,0.0,0.0,79,0.00,,---,0.00,VWS V14.01,2013-10-21 12:30:00,
2013-10-21 07:35:00,44.9,39.1,29.89,WNW,298,1.0,1.0,80,0.00,,---,0.00,VWS V14.01,2013-10-21 12:35:00,
2013-10-21 07:40:00,44.7,38.9,29.90,SW,215,0.0,0.0,80,0.00,,---,0.00,VWS V14.01,2013-10-21 12:40:00,
2013-10-21 07:45:00,44.5,39.0,29.90,SW,215,0.0,1.0,81,0.00,,---,0.00,VWS V14.01,2013-10-21 12:45:00,
2013-10-21 07:50:00,44.4,38.9,29.90,SSW,209,0.0,0.0,81,0.00,,---,0.00,VWS V14.01,2013-10-21 12:50:00,
2013-10-21 07:55:00,44.3,38.8,29.91,SSW,209,1.0,1.0,81,0.00,,---,0.00,VWS V14.01,2013-10-21 12:55:00,
2013-10-21 08:00:00,44.3,38.8,29.91,SW,214,1.0,1.0,81,0.00,,---,0.00,VWS V14.01,2013-10-21 13:00:00,
2013-10-21 08:05:00,44.3,38.8,29.91,SW,217,1.0,1.0,81,0.00,,---,0.00,VWS V14.01,2013-10-21 13:05:00,
2013-10-21 08:10:00,44.2,39.1,29.92,SW,228,0.0,0.0,82,0.00,,---,0.00,VWS V14.01,2013-10-21 13:10:00,
2013-10-21 08:15:00,44.2,39.1,29.92,SW,228,1.0,1.0,82,0.00,,---,0.00,VWS V14.01,2013-10-21 13:15:00,
2013-10-21 08:20:00,44.3,38.8,29.92,West,260,0.0,0.0,81,0.00,,---,0.00,VWS V14.01,2013-10-21 13:20:00,
2013-10-21 08:25:00,44.3,38.8,29.93,SW,224,0.0,0.0,81,0.00,,---,0.00,VWS V14.01,2013-10-21 13:25:00,
2013-10-21 08:30:00,44.3,38.8,29.93,SW,232,1.0,1.0,81,0.00,,---,0.00,VWS V14.01,2013-10-21 13:30:00,
2013-10-21 08:35:00,44.3,38.5,29.93,WSW,239,0.0,0.0,80,0.00,,---,0.00,VWS V14.01,2013-10-21 13:35:00,
2013-10-21 08:40:00,44.3,38.5,29.93,WSW,239,0.0,0.0,80,0.00,,---,0.00,VWS V14.01,2013-10-21 13:40:00,
2013-10-21 08:44:00,44.3,38.2,29.93,WSW,239,1.0,1.0,79,0.00,,---,0.00,VWS V14.01,2013-10-21 13:44:00,
2013-10-21 08:49:00,44.3,38.2,29.93,North,360,0.0,1.0,79,0.00,,---,0.00,VWS V14.01,2013-10-21 13:49:00,
2013-10-21 08:54:00,44.3,38.2,29.92,NW,304,0.0,1.0,79,0.00,,---,0.00,VWS V14.01,2013-10-21 13:54:00,
2013-10-21 08:59:00,44.4,38.0,29.92,West,273,0.0,3.0,78,0.00,,---,0.00,VWS V14.01,2013-10-21 13:59:00,
2013-10-21 09:04:00,44.6,37.8,29.92,WNW,290,0.0,1.0,77,0.00,,---,0.00,VWS V14.01,2013-10-21 14:04:00,
2013-10-21 09:09:00,44.8,38.0,29.93,WNW,282,2.0,2.0,77,0.00,,---,0.00,VWS V14.01,2013-10-21 14:09:00,
2013-10-21 09:14:00,44.8,37.7,29.93,NW,314,0.0,2.0,76,0.00,,---,0.00,VWS V14.01,2013-10-21 14:14:00,
2013-10-21 09:19:00,44.9,37.1,29.93,NW,320,0.0,2.0,74,0.00,,---,0.00,VWS V14.01,2013-10-21 14:19:00,
2013-10-21 09:24:00,44.9,37.1,29.93,WSW,247,2.0,5.0,74,0.00,,---,0.00,VWS V14.01,2013-10-21 14:24:00,
2013-10-21 09:29:00,44.9,36.4,29.93,West,275,2.0,2.0,72,0.00,,---,0.00,VWS V14.01,2013-10-21 14:29:00,
2013-10-21 09:34:00,44.9,36.8,29.93,WNW,286,0.0,1.0,73,0.00,,---,0.00,VWS V14.01,2013-10-21 14:34:00,
2013-10-21 09:39:00,45.0,37.2,29.93,WSW,251,2.0,2.0,74,0.00,,---,0.00,VWS V14.01,2013-10-21 14:39:00,
2013-10-21 09:44:00,45.1,36.6,29.93,SW,223,1.0,4.0,72,0.00,,---,0.00,VWS V14.01,2013-10-21 14:44:00,
2013-10-21 09:49:00,45.1,36.3,29.93,West,269,1.0,2.0,71,0.00,,---,0.00,VWS V14.01,2013-10-21 14:49:00,
2013-10-21 09:54:00,45.2,36.7,29.93,SSW,205,1.0,2.0,72,0.00,,---,0.00,VWS V14.01,2013-10-21 14:54:00,
2013-10-21 09:59:00,45.2,36.7,29.93,West,275,0.0,1.0,72,0.00,,---,0.00,VWS V14.01,2013-10-21 14:59:00,
2013-10-21 10:04:00,45.3,36.8,29.93,West,275,1.0,1.0,72,0.00,,---,0.00,VWS V14.01,2013-10-21 15:04:00,
2013-10-21 10:09:00,45.3,36.8,29.94,West,270,0.0,1.0,72,0.00,,---,0.00,VWS V14.01,2013-10-21 15:09:00,
2013-10-21 10:14:00,45.4,36.6,29.94,West,270,1.0,1.0,71,0.00,,---,0.00,VWS V14.01,2013-10-21 15:14:00,
2013-10-21 10:19:00,45.4,35.8,29.94,WSW,247,0.0,1.0,69,0.00,,---,0.00,VWS V14.01,2013-10-21 15:19:00,
2013-10-21 10:24:00,45.4,36.2,29.94,WNW,288,0.0,1.0,70,0.00,,---,0.00,VWS V14.01,2013-10-21 15:24:00,
2013-10-21 10:29:00,45.8,36.2,29.94,West,259,0.0,2.0,69,0.00,,---,0.00,VWS V14.01,2013-10-21 15:29:00,
2013-10-21 10:34:00,46.4,36.8,29.94,WSW,248,2.0,2.0,69,0.00,,---,0.00,VWS V14.01,2013-10-21 15:34:00,
2013-10-21 10:39:00,47.3,36.9,29.93,West,263,4.0,5.0,67,0.00,,---,0.00,VWS V14.01,2013-10-21 15:39:00,
2013-10-21 10:44:00,47.8,36.2,29.93,WNW,294,2.0,5.0,64,0.00,,---,0.00,VWS V14.01,2013-10-21 15:44:00,
2013-10-21 10:49:00,47.9,35.5,29.93,North,351,0.0,1.0,62,0.00,,---,0.00,VWS V14.01,2013-10-21 15:49:00,
2013-10-21 10:54:00,47.9,36.3,29.94,WSW,257,2.0,3.0,64,0.00,,---,0.00,VWS V14.01,2013-10-21 15:54:00,
2013-10-21 10:59:00,48.2,35.4,29.94,NNW,347,1.0,1.0,61,0.00,,---,0.00,VWS V14.01,2013-10-21 15:59:00,
2013-10-21 11:04:00,48.4,35.2,29.94,NW,319,1.0,2.0,60,0.00,,---,0.00,VWS V14.01,2013-10-21 16:04:00,
2013-10-21 11:09:00,48.5,35.7,29.93,West,278,2.0,2.0,61,0.00,,---,0.00,VWS V14.01,2013-10-21 16:09:00,
2013-10-21 11:14:00,49.0,35.3,29.93,West,277,1.0,2.0,59,0.00,,---,0.00,VWS V14.01,2013-10-21 16:14:00,
2013-10-21 11:19:00,49.2,34.2,29.93,North,355,1.0,4.0,56,0.00,,---,0.00,VWS V14.01,2013-10-21 16:19:00,
2013-10-21 11:24:00,49.0,34.0,29.94,NNW,340,0.0,1.0,56,0.00,,---,0.00,VWS V14.01,2013-10-21 16:24:00,
2013-10-21 11:29:00,48.6,35.4,29.94,West,276,1.0,2.0,60,0.00,,---,0.00,VWS V14.01,2013-10-21 16:29:00,
2013-10-21 11:34:00,48.7,35.0,29.94,NW,305,1.0,2.0,59,0.00,,---,0.00,VWS V14.01,2013-10-21 16:34:00,
2013-10-21 11:37:00,48.4,35.2,29.94,WSW,246,1.0,2.0,60,0.00,,---,0.00,VWS V14.01,2013-10-21 16:37:00,
2013-10-21 11:38:00,48.5,35.3,29.94,NNW,338,2.0,2.0,60,0.00,,---,0.00,VWS V14.01,2013-10-21 16:38:00,
2013-10-21 11:39:00,48.6,34.5,29.94,West,270,1.0,2.0,58,0.00,,---,0.00,VWS V14.01,2013-10-21 16:39:00,
2013-10-21 11:40:00,48.6,34.9,29.94,NNW,338,1.0,2.0,59,0.00,,---,0.00,VWS V14.01,2013-10-21 16:40:00,
2013-10-21 11:41:00,48.6,34.5,29.94,WNW,292,1.0,2.0,58,0.00,,---,0.00,VWS V14.01,2013-10-21 16:41:00,
2013-10-21 11:42:00,48.6,34.5,29.94,SW,225,2.0,5.0,58,0.00,,---,0.00,VWS V14.01,2013-10-21 16:42:00,
2013-10-21 11:43:00,48.6,35.4,29.94,SW,225,1.0,2.0,60,0.00,,---,0.00,VWS V14.01,2013-10-21 16:43:00,
2013-10-21 11:44:00,48.5,34.4,29.94,SSW,208,0.0,0.0,58,0.00,,---,0.00,VWS V14.01,2013-10-21 16:44:00,
2013-10-21 11:45:00,48.7,35.0,29.94,WSW,248,1.0,2.0,59,0.00,,---,0.00,VWS V14.01,2013-10-21 16:45:00,
2013-10-21 11:46:00,48.7,35.0,29.94,West,270,1.0,2.0,59,0.00,,---,0.00,VWS V14.01,2013-10-21 16:46:00,
2013-10-21 11:47:00,48.8,35.1,29.94,WNW,292,1.0,2.0,59,0.00,,---,0.00,VWS V14.01,2013-10-21 16:47:00,
2013-10-21 11:48:00,48.9,35.6,29.94,WNW,292,1.0,2.0,60,0.00,,---,0.00,VWS V14.01,2013-10-21 16:48:00,
2013-10-21 11:49:00,49.0,35.3,29.94,SW,225,6.0,9.0,59,0.00,,---,0.00,VWS V14.01,2013-10-21 16:49:00,
2013-10-21 11:50:00,49.0,34.9,29.94,NW,315,3.0,7.0,58,0.00,,---,0.00,VWS V14.01,2013-10-21 16:50:00,
2013-10-21 11:51:00,49.1,35.4,29.94,NW,315,1.0,2.0,59,0.00,,---,0.00,VWS V14.01,2013-10-21 16:51:00,
2013-10-21 11:52:00,49.1,35.0,29.94,West,270,1.0,3.0,58,0.00,,---,0.00,VWS V14.01,2013-10-21 16:52:00,
2013-10-21 11:53:00,49.1,35.4,29.94,WSW,248,1.0,2.0,59,0.00,,---,0.00,VWS V14.01,2013-10-21 16:53:00,
2013-10-21 11:54:00,49.2,35.5,29.94,WSW,248,1.0,2.0,59,0.00,,---,0.00,VWS V14.01,2013-10-21 16:54:00,
2013-10-21 11:55:00,49.2,35.9,29.94,West,270,2.0,4.0,60,0.00,,---,0.00,VWS V14.01,2013-10-21 16:55:00,
2013-10-21 11:56:00,49.3,35.2,29.94,WSW,248,5.0,6.0,58,0.00,,---,0.00,VWS V14.01,2013-10-21 16:56:00,
2013-10-21 11:57:00,49.4,35.7,29.94,SW,225,6.0,10.0,59,0.00,,---,0.00,VWS V14.01,2013-10-21 16:57:00,
2013-10-21 11:58:00,49.4,35.7,29.94,SW,225,5.0,7.0,59,0.00,,---,0.00,VWS V14.01,2013-10-21 16:58:00,
2013-10-21 11:59:00,49.4,35.7,29.94,WSW,248,4.0,8.0,59,0.00,,---,0.00,VWS V14.01,2013-10-21 16:59:00,
2013-10-21 12:00:00,49.5,35.8,29.94,WSW,248,5.0,8.0,59,0.00,,---,0.00,VWS V14.01,2013-10-21 17:00:00,
2013-10-21 12:01:00,49.5,35.8,29.94,West,270,2.0,2.0,59,0.00,,---,0.00,VWS V14.01,2013-10-21 17:01:00,
2013-10-21 12:02:00,49.6,35.5,29.94,West,270,2.0,4.0,58,0.00,,---,0.00,VWS V14.01,2013-10-21 17:02:00,
2013-10-21 12:03:00,49.6,35.0,29.94,West,270,1.0,1.0,57,0.00,,---,0.00,VWS V14.01,2013-10-21 17:03:00,
2013-10-21 12:04:00,49.6,35.0,29.94,West,270,1.0,1.0,57,0.00,,---,0.00,VWS V14.01,2013-10-21 17:04:00,
2013-10-21 12:05:00,49.6,35.5,29.94,North,0,2.0,3.0,58,0.00,,---,0.00,VWS V14.01,2013-10-21 17:05:00,
2013-10-21 12:06:00,49.6,35.0,29.94,North,0,1.0,2.0,57,0.00,,---,0.00,VWS V14.01,2013-10-21 17:06:00,
2013-10-21 12:07:00,49.5,35.8,29.94,NW,315,1.0,2.0,59,0.00,,---,0.00,VWS V14.01,2013-10-21 17:07:00,
2013-10-21 12:08:00,49.6,35.9,29.94,WNW,292,1.0,2.0,59,0.00,,---,0.00,VWS V14.01,2013-10-21 17:08:00,
2013-10-21 12:09:00,49.6,36.3,29.94,SW,225,5.0,8.0,60,0.00,,---,0.00,VWS V14.01,2013-10-21 17:09:00,
2013-10-21 12:10:00,49.6,35.9,29.94,WSW,248,5.0,7.0,59,0.00,,---,0.00,VWS V14.01,2013-10-21 17:10:00,
2013-10-21 12:11:00,49.6,35.9,29.94,ESE,112,1.0,2.0,59,0.00,,---,0.00,VWS V14.01,2013-10-21 17:11:00,
2013-10-21 12:12:00,49.7,36.0,29.94,SSW,202,0.0,1.0,59,0.00,,---,0.00,VWS V14.01,2013-10-21 17:12:00,
2013-10-21 12:13:00,49.8,36.1,29.94,SW,225,1.0,4.0,59,0.00,,---,0.00,VWS V14.01,2013-10-21 17:13:00,
2013-10-21 12:14:00,49.8,36.1,29.94,SSW,202,4.0,7.0,59,0.00,,---,0.00,VWS V14.01,2013-10-21 17:14:00,
2013-10-21 12:15:00,49.9,36.2,29.93,SW,225,5.0,9.0,59,0.00,,---,0.00,VWS V14.01,2013-10-21 17:15:00,
2013-10-21 12:16:00,50.0,36.2,29.93,SW,225,2.0,5.0,59,0.00,,---,0.00,VWS V14.01,2013-10-21 17:16:00,
2013-10-21 12:17:00,50.1,36.3,29.93,West,270,3.0,8.0,59,0.00,,---,0.00,VWS V14.01,2013-10-21 17:17:00,
2013-10-21 12:18:00,50.2,36.0,29.93,SW,225,1.0,2.0,58,0.00,,---,0.00,VWS V14.01,2013-10-21 17:18:00,
2013-10-21 12:19:00,50.2,36.0,29.93,SW,225,2.0,8.0,58,0.00,,---,0.00,VWS V14.01,2013-10-21 17:19:00,
2013-10-21 12:20:00,50.2,36.0,29.93,SW,225,5.0,9.0,58,0.00,,---,0.00,VWS V14.01,2013-10-21 17:20:00,
2013-10-21 12:21:00,50.3,36.1,29.93,WSW,248,4.0,6.0,58,0.00,,---,0.00,VWS V14.01,2013-10-21 17:21:00,
2013-10-21 12:22:00,50.3,36.1,29.93,WSW,248,2.0,4.0,58,0.00,,---,0.00,VWS V14.01,2013-10-21 17:22:00,
2013-10-21 12:23:00,50.3,36.1,29.93,West,270,2.0,4.0,58,0.00,,---,0.00,VWS V14.01,2013-10-21 17:23:00,
2013-10-21 12:24:00,50.3,36.1,29.93,West,270,2.0,3.0,58,0.00,,---,0.00,VWS V14.01,2013-10-21 17:24:00,
2013-10-21 12:25:00,50.4,36.6,29.93,West,270,1.0,4.0,59,0.00,,---,0.00,VWS V14.01,2013-10-21 17:25:00,
2013-10-21 12:26:00,50.4,36.2,29.93,SW,225,5.0,8.0,58,0.00,,---,0.00,VWS V14.01,2013-10-21 17:26:00,
2013-10-21 12:27:00,50.4,35.8,29.93,SW,225,8.0,10.0,57,0.00,,---,0.00,VWS V14.01,2013-10-21 17:27:00,
2013-10-21 12:28:00,50.4,35.8,29.93,WSW,248,5.0,9.0,57,0.00,,---,0.00,VWS V14.01,2013-10-21 17:28:00,
2013-10-21 12:29:00,50.4,36.2,29.93,SSW,202,6.0,9.0,58,0.00,,---,0.00,VWS V14.01,2013-10-21 17:29:00,
2013-10-21 12:30:00,50.5,35.8,29.93,West,270,2.0,2.0,57,0.00,,---,0.00,VWS V14.01,2013-10-21 17:30:00,
2013-10-21 12:31:00,50.5,35.8,29.93,NW,315,1.0,2.0,57,0.00,,---,0.00,VWS V14.01,2013-10-21 17:31:00,
2013-10-21 12:32:00,50.5,35.4,29.93,North,0,1.0,2.0,56,0.00,,---,0.00,VWS V14.01,2013-10-21 17:32:00,
2013-10-21 12:33:00,50.5,35.0,29.93,West,270,2.0,5.0,55,0.00,,---,0.00,VWS V14.01,2013-10-21 17:33:00,
2013-10-21 12:34:00,50.5,35.8,29.93,NNW,338,1.0,2.0,57,0.00,,---,0.00,VWS V14.01,2013-10-21 17:34:00,
2013-10-21 12:35:00,50.5,35.4,29.93,NW,315,1.0,2.0,56,0.00,,---,0.00,VWS V14.01,2013-10-21 17:35:00,
2013-10-21 12:36:00,50.5,35.4,29.93,WNW,292,1.0,2.0,56,0.00,,---,0.00,VWS V14.01,2013-10-21 17:36:00,
2013-10-21 12:37:00,50.5,35.4,29.93,West,270,1.0,2.0,56,0.00,,---,0.00,VWS V14.01,2013-10-21 17:37:00,
2013-10-21 12:38:00,50.5,35.4,29.93,NNW,338,1.0,2.0,56,0.00,,---,0.00,VWS V14.01,2013-10-21 17:38:00,
2013-10-21 12:39:00,50.4,35.3,29.93,NW,315,1.0,2.0,56,0.00,,---,0.00,VWS V14.01,2013-10-21 17:39:00,
2013-10-21 12:40:00,50.4,35.8,29.93,NW,315,1.0,2.0,57,0.00,,---,0.00,VWS V14.01,2013-10-21 17:40:00,
2013-10-21 12:41:00,50.4,35.8,29.93,NW,315,1.0,2.0,57,0.00,,---,0.00,VWS V14.01,2013-10-21 17:41:00,
2013-10-21 12:42:00,50.4,35.8,29.93,West,270,2.0,8.0,57,0.00,,---,0.00,VWS V14.01,2013-10-21 17:42:00,
2013-10-21 12:43:00,50.4,35.3,29.93,WSW,248,7.0,10.0,56,0.00,,---,0.00,VWS V14.01,2013-10-21 17:43:00,
2013-10-21 12:44:00,50.5,35.4,29.93,WSW,248,4.0,5.0,56,0.00,,---,0.00,VWS V14.01,2013-10-21 17:44:00,
2013-10-21 12:45:00,50.5,35.4,29.93,NW,315,1.0,2.0,56,0.00,,---,0.00,VWS V14.01,2013-10-21 17:45:00,
2013-10-21 12:46:00,50.5,35.4,29.93,WNW,292,2.0,4.0,56,0.00,,---,0.00,VWS V14.01,2013-10-21 17:46:00,
2013-10-21 12:47:00,50.5,35.4,29.93,West,270,2.0,4.0,56,0.00,,---,0.00,VWS V14.01,2013-10-21 17:47:00,
2013-10-21 12:48:00,50.5,34.5,29.93,NW,315,2.0,7.0,54,0.00,,---,0.00,VWS V14.01,2013-10-21 17:48:00,
2013-10-21 12:49:00,50.4,34.9,29.93,WSW,248,3.0,5.0,55,0.00,,---,0.00,VWS V14.01,2013-10-21 17:49:00,
2013-10-21 12:50:00,50.4,34.9,29.93,NW,315,1.0,1.0,55,0.00,,---,0.00,VWS V14.01,2013-10-21 17:50:00,
2013-10-21 12:51:00,50.4,34.9,29.93,NW,315,1.0,2.0,55,0.00,,---,0.00,VWS V14.01,2013-10-21 17:51:00,
2013-10-21 12:52:00,50.4,35.3,29.93,NW,315,1.0,1.0,56,0.00,,---,0.00,VWS V14.01,2013-10-21 17:52:00,
2013-10-21 12:53:00,50.4,34.9,29.93,NW,315,1.0,2.0,55,0.00,,---,0.00,VWS V14.01,2013-10-21 17:53:00,
2013-10-21 12:54:00,50.5,36.3,29.93,NW,315,1.0,4.0,58,0.00,,---,0.00,VWS V14.01,2013-10-21 17:54:00,
2013-10-21 12:55:00,50.6,36.8,29.93,SW,225,4.0,8.0,59,0.00,,---,0.00,VWS V14.01,2013-10-21 17:55:00,
2013-10-21 12:56:00,50.8,35.7,29.93,NNW,338,2.0,2.0,56,0.00,,---,0.00,VWS V14.01,2013-10-21 17:56:00,
2013-10-21 12:57:00,50.9,35.8,29.93,WSW,248,2.0,5.0,56,0.00,,---,0.00,VWS V14.01,2013-10-21 17:57:00,
2013-10-21 12:58:00,51.2,36.1,29.93,SW,225,4.0,7.0,56,0.00,,---,0.00,VWS V14.01,2013-10-21 17:58:00,
2013-10-21 12:59:00,51.4,36.2,29.93,SW,225,4.0,10.0,56,0.00,,---,0.00,VWS V14.01,2013-10-21 17:59:00,
2013-10-21 13:00:00,51.7,35.6,29.92,West,270,2.0,5.0,54,0.00,,---,0.00,VWS V14.01,2013-10-21 18:00:00,
2013-10-21 13:01:00,52.0,35.9,29.92,WSW,248,6.0,12.0,54,0.00,,---,0.00,VWS V14.01,2013-10-21 18:01:00,
2013-10-21 13:02:00,52.2,35.1,29.92,West,270,2.0,4.0,52,0.00,,---,0.00,VWS V14.01,2013-10-21 18:02:00,
2013-10-21 13:03:00,52.4,36.3,29.92,West,270,2.0,5.0,54,0.00,,---,0.00,VWS V14.01,2013-10-21 18:03:00,
2013-10-21 13:04:00,52.6,35.0,29.92,NW,315,1.0,4.0,51,0.00,,---,0.00,VWS V14.01,2013-10-21 18:04:00,
2013-10-21 13:05:00,52.8,36.2,29.92,SW,225,4.0,9.0,53,0.00,,---,0.00,VWS V14.01,2013-10-21 18:05:00,
2013-10-21 13:06:00,53.0,35.4,29.92,WSW,248,7.0,10.0,51,0.00,,---,0.00,VWS V14.01,2013-10-21 18:06:00,
2013-10-21 13:07:00,53.1,35.0,29.92,WSW,248,3.0,5.0,50,0.00,,---,0.00,VWS V14.01,2013-10-21 18:07:00,
2013-10-21 13:08:00,53.2,35.6,29.92,SSW,202,4.0,9.0,51,0.00,,---,0.00,VWS V14.01,2013-10-21 18:08:00,
2013-10-21 13:09:00,53.4,35.2,29.92,NW,315,2.0,5.0,50,0.00,,---,0.00,VWS V14.01,2013-10-21 18:09:00,
2013-10-21 13:10:00,53.5,34.8,29.92,WNW,292,1.0,4.0,49,0.00,,---,0.00,VWS V14.01,2013-10-21 18:10:00,
2013-10-21 13:11:00,53.6,35.9,29.92,WSW,248,6.0,8.0,51,0.00,,---,0.00,VWS V14.01,2013-10-21 18:11:00,
2013-10-21 13:12:00,53.6,35.9,29.92,SW,225,5.0,10.0,51,0.00,,---,0.00,VWS V14.01,2013-10-21 18:12:00,
2013-10-21 13:13:00,53.8,36.1,29.92,SW,225,3.0,7.0,51,0.00,,---,0.00,VWS V14.01,2013-10-21 18:13:00,
2013-10-21 13:14:00,53.9,35.7,29.92,SSW,202,2.0,7.0,50,0.00,,---,0.00,VWS V14.01,2013-10-21 18:14:00,
2013-10-21 13:15:00,54.0,36.3,29.92,SW,225,4.0,6.0,51,0.00,,---,0.00,VWS V14.01,2013-10-21 18:15:00,
2013-10-21 13:16:00,54.1,35.9,29.92,SW,225,4.0,7.0,50,0.00,,---,0.00,VWS V14.01,2013-10-21 18:16:00,
2013-10-21 13:17:00,54.2,35.0,29.92,SSW,202,6.0,10.0,48,0.00,,---,0.00,VWS V14.01,2013-10-21 18:17:00,
2013-10-21 13:18:00,54.1,35.4,29.92,SW,225,2.0,4.0,49,0.00,,---,0.00,VWS V14.01,2013-10-21 18:18:00,
2013-10-21 13:19:00,54.1,35.9,29.92,SW,225,3.0,7.0,50,0.00,,---,0.00,VWS V14.01,2013-10-21 18:19:00,
2013-10-21 13:20:00,54.1,34.9,29.92,SSW,202,4.0,6.0,48,0.00,,---,0.00,VWS V14.01,2013-10-21 18:20:00,
2013-10-21 13:21:00,54.0,34.8,29.92,SSW,202,3.0,7.0,48,0.00,,---,0.00,VWS V14.01,2013-10-21 18:21:00,
2013-10-21 13:22:00,53.9,35.7,29.92,West,270,5.0,8.0,50,0.00,,---,0.00,VWS V14.01,2013-10-21 18:22:00,
2013-10-21 13:23:00,53.9,35.2,29.92,West,270,2.0,4.0,49,0.00,,---,0.00,VWS V14.01,2013-10-21 18:23:00,
2013-10-21 13:24:00,53.9,34.2,29.92,NW,315,1.0,2.0,47,0.00,,---,0.00,VWS V14.01,2013-10-21 18:24:00,
2013-10-21 13:25:00,53.8,33.5,29.92,NNW,338,1.0,2.0,46,0.00,,---,0.00,VWS V14.01,2013-10-21 18:25:00,
2013-10-21 13:26:00,53.7,34.0,29.92,WNW,292,2.0,6.0,47,0.00,,---,0.00,VWS V14.01,2013-10-21 18:26:00,
2013-10-21 13:27:00,53.6,34.4,29.92,NNW,338,4.0,7.0,48,0.00,,---,0.00,VWS V14.01,2013-10-21 18:27:00,
2013-10-21 13:28:00,53.4,33.7,29.92,West,270,2.0,5.0,47,0.00,,---,0.00,VWS V14.01,2013-10-21 18:28:00,
2013-10-21 13:29:00,53.3,34.1,29.92,NW,315,1.0,4.0,48,0.00,,---,0.00,VWS V14.01,2013-10-21 18:29:00,
2013-10-21 13:30:00,53.1,34.0,29.92,NW,315,2.0,6.0,48,0.00,,---,0.00,VWS V14.01,2013-10-21 18:30:00,
2013-10-21 13:31:00,52.9,33.8,29.92,West,270,6.0,12.0,48,0.00,,---,0.00,VWS V14.01,2013-10-21 18:31:00,
2013-10-21 13:32:00,52.8,34.2,29.92,WNW,292,2.0,6.0,49,0.00,,---,0.00,VWS V14.01,2013-10-21 18:32:00,
2013-10-21 13:33:00,52.7,33.6,29.92,West,270,3.0,6.0,48,0.00,,---,0.00,VWS V14.01,2013-10-21 18:33:00,
2013-10-21 13:34:00,52.5,33.9,29.92,SSW,202,3.0,6.0,49,0.00,,---,0.00,VWS V14.01,2013-10-21 18:34:00,
2013-10-21 13:35:00,52.4,33.3,29.92,WSW,248,2.0,4.0,48,0.00,,---,0.00,VWS V14.01,2013-10-21 18:35:00,
2013-10-21 13:36:00,52.3,33.2,29.92,West,270,4.0,7.0,48,0.00,,---,0.00,VWS V14.01,2013-10-21 18:36:00,
2013-10-21 13:37:00,52.2,33.1,29.92,West,270,1.0,2.0,48,0.00,,---,0.00,VWS V14.01,2013-10-21 18:37:00,
2013-10-21 13:38:00,52.1,32.5,29.92,NNW,338,1.0,3.0,47,0.00,,---,0.00,VWS V14.01,2013-10-21 18:38:00,
2013-10-21 13:39:00,52.1,32.0,29.92,West,270,2.0,4.0,46,0.00,,---,0.00,VWS V14.01,2013-10-21 18:39:00,
2013-10-21 13:40:00,52.0,32.4,29.92,NNW,338,1.0,2.0,47,0.00,,---,0.00,VWS V14.01,2013-10-21 18:40:00,
2013-10-21 13:41:00,52.1,33.5,29.92,West,270,1.0,3.0,49,0.00,,---,0.00,VWS V14.01,2013-10-21 18:41:00,
2013-10-21 13:42:00,52.1,34.0,29.92,West,270,2.0,3.0,50,0.00,,---,0.00,VWS V14.01,2013-10-21 18:42:00,
2013-10-21 13:43:00,52.2,33.6,29.92,West,270,2.0,4.0,49,0.00,,---,0.00,VWS V14.01,2013-10-21 18:43:00,
2013-10-21 13:44:00,52.3,33.2,29.92,NW,315,2.0,4.0,48,0.00,,---,0.00,VWS V14.01,2013-10-21 18:44:00,
2013-10-21 13:45:00,52.5,33.9,29.91,West,270,3.0,6.0,49,0.00,,---,0.00,VWS V14.01,2013-10-21 18:45:00,
2013-10-21 13:46:00,52.6,33.0,29.91,West,270,1.0,3.0,47,0.00,,---,0.00,VWS V14.01,2013-10-21 18:46:00,
2013-10-21 13:47:00,52.7,33.0,29.91,West,270,2.0,4.0,47,0.00,,---,0.00,VWS V14.01,2013-10-21 18:47:00,
2013-10-21 13:48:00,52.8,33.7,29.91,West,270,2.0,4.0,48,0.00,,---,0.00,VWS V14.01,2013-10-21 18:48:00,
2013-10-21 13:49:00,53.0,33.8,29.91,West,270,2.0,4.0,48,0.00,,---,0.00,VWS V14.01,2013-10-21 18:49:00,
2013-10-21 13:50:00,53.2,33.5,29.91,West,270,2.0,4.0,47,0.00,,---,0.00,VWS V14.01,2013-10-21 18:50:00,
2013-10-21 13:51:00,53.2,34.0,29.91,NW,315,1.0,2.0,48,0.00,,---,0.00,VWS V14.01,2013-10-21 18:51:00,
2013-10-21 13:52:00,53.3,34.1,29.91,West,270,2.0,4.0,48,0.00,,---,0.00,VWS V14.01,2013-10-21 18:52:00,
2013-10-21 13:53:00,53.4,33.7,29.91,WSW,248,3.0,5.0,47,0.00,,---,0.00,VWS V14.01,2013-10-21 18:53:00,
2013-10-21 13:54:00,53.5,33.2,29.91,West,270,2.0,5.0,46,0.00,,---,0.00,VWS V14.01,2013-10-21 18:54:00,
2013-10-21 13:55:00,53.5,32.7,29.91,NW,315,2.0,5.0,45,0.00,,---,0.00,VWS V14.01,2013-10-21 18:55:00,
2013-10-21 13:56:00,53.7,33.4,29.91,SW,225,5.0,8.0,46,0.00,,---,0.00,VWS V14.01,2013-10-21 18:56:00,
2013-10-21 13:57:00,53.8,33.5,29.91,West,270,2.0,3.0,46,0.00,,---,0.00,VWS V14.01,2013-10-21 18:57:00,
2013-10-21 13:58:00,53.9,33.1,29.91,West,270,3.0,8.0,45,0.00,,---,0.00,VWS V14.01,2013-10-21 18:58:00,
2013-10-21 13:59:00,54.0,32.6,29.91,WSW,248,6.0,12.0,44,0.00,,---,0.00,VWS V14.01,2013-10-21 18:59:00,
2013-10-21 14:00:00,54.1,32.7,29.91,WSW,248,7.0,8.0,44,0.00,,---,0.00,VWS V14.01,2013-10-21 19:00:00,
2013-10-21 14:01:00,54.2,32.2,29.91,SW,225,5.0,9.0,43,0.00,,---,0.00,VWS V14.01,2013-10-21 19:01:00,
2013-10-21 14:02:00,54.2,32.8,29.91,WSW,248,4.0,6.0,44,0.00,,---,0.00,VWS V14.01,2013-10-21 19:02:00,
2013-10-21 14:03:00,54.2,32.8,29.91,WSW,248,2.0,3.0,44,0.00,,---,0.00,VWS V14.01,2013-10-21 19:03:00,
2013-10-21 14:04:00,54.2,32.8,29.91,WNW,292,2.0,4.0,44,0.00,,---,0.00,VWS V14.01,2013-10-21 19:04:00,
2013-10-21 14:05:00,54.2,31.6,29.91,NW,315,1.0,2.0,42,0.00,,---,0.00,VWS V14.01,2013-10-21 19:05:00,
2013-10-21 14:06:00,54.2,31.6,29.91,NW,315,2.0,4.0,42,0.00,,---,0.00,VWS V14.01,2013-10-21 19:06:00,
2013-10-21 14:07:00,54.1,31.5,29.91,West,270,1.0,2.0,42,0.00,,---,0.00,VWS V14.01,2013-10-21 19:07:00,
2013-10-21 14:08:00,54.0,32.0,29.91,West,270,2.0,4.0,43,0.00,,---,0.00,VWS V14.01,2013-10-21 19:08:00,
2013-10-21 14:09:00,54.0,33.2,29.91,West,270,2.0,4.0,45,0.00,,---,0.00,VWS V14.01,2013-10-21 19:09:00,
2013-10-21 14:10:00,53.9,32.5,29.91,WNW,292,1.0,2.0,44,0.00,,---,0.00,VWS V14.01,2013-10-21 19:10:00,
2013-10-21 14:11:00,53.9,32.5,29.91,West,270,3.0,5.0,44,0.00,,---,0.00,VWS V14.01,2013-10-21 19:11:00,
2013-10-21 14:12:00,53.9,32.5,29.91,West,270,3.0,5.0,44,0.00,,---,0.00,VWS V14.01,2013-10-21 19:12:00,
2013-10-21 14:13:00,54.0,32.6,29.91,WNW,292,1.0,2.0,44,0.00,,---,0.00,VWS V14.01,2013-10-21 19:13:00,
2013-10-21 14:14:00,54.0,33.7,29.91,SW,225,2.0,4.0,46,0.00,,---,0.00,VWS V14.01,2013-10-21 19:14:00,
2013-10-21 14:15:00,54.0,33.2,29.90,West,270,2.0,5.0,45,0.00,,---,0.00,VWS V14.01,2013-10-21 19:15:00,
2013-10-21 14:16:00,54.1,33.8,29.90,SW,225,5.0,11.0,46,0.00,,---,0.00,VWS V14.01,2013-10-21 19:16:00,
2013-10-21 14:17:00,54.3,33.4,29.90,South,180,3.0,7.0,45,0.00,,---,0.00,VWS V14.01,2013-10-21 19:17:00,
2013-10-21 14:18:00,54.4,33.5,29.90,SW,225,5.0,8.0,45,0.00,,---,0.00,VWS V14.01,2013-10-21 19:18:00,
2013-10-21 14:19:00,54.4,33.0,29.90,WSW,248,6.0,12.0,44,0.00,,---,0.00,VWS V14.01,2013-10-21 19:19:00,
2013-10-21 14:20:00,54.3,31.7,29.90,South,180,5.0,9.0,42,0.00,,---,0.00,VWS V14.01,2013-10-21 19:20:00,
2013-10-21 14:21:00,54.3,31.1,29.90,SW,225,6.0,9.0,41,0.00,,---,0.00,VWS V14.01,2013-10-21 19:21:00,
2013-10-21 14:22:00,54.2,31.6,29.90,SW,225,4.0,6.0,42,0.00,,---,0.00,VWS V14.01,2013-10-21 19:22:00,
2013-10-21 14:23:00,54.1,32.7,29.90,WSW,248,3.0,7.0,44,0.00,,---,0.00,VWS V14.01,2013-10-21 19:23:00,
2013-10-21 14:24:00,54.1,32.7,29.90,WSW,248,4.0,9.0,44,0.00,,---,0.00,VWS V14.01,2013-10-21 19:24:00,
2013-10-21 14:25:00,54.1,32.1,29.90,NW,315,2.0,4.0,43,0.00,,---,0.00,VWS V14.01,2013-10-21 19:25:00,
2013-10-21 14:26:00,54.2,32.8,29.90,West,270,3.0,5.0,44,0.00,,---,0.00,VWS V14.01,2013-10-21 19:26:00,
2013-10-21 14:27:00,54.2,31.6,29.90,NW,315,2.0,4.0,42,0.00,,---,0.00,VWS V14.01,2013-10-21 19:27:00,
2013-10-21 14:28:00,54.1,31.5,29.90,WSW,248,2.0,3.0,42,0.00,,---,0.00,VWS V14.01,2013-10-21 19:28:00,
2013-10-21 14:29:00,54.1,31.5,29.90,WSW,248,2.0,2.0,42,0.00,,---,0.00,VWS V14.01,2013-10-21 19:29:00,
2013-10-21 14:30:00,54.1,32.1,29.90,West,270,2.0,5.0,43,0.00,,---,0.00,VWS V14.01,2013-10-21 19:30:00,
2013-10-21 14:31:00,54.1,31.5,29.90,NW,315,1.0,2.0,42,0.00,,---,0.00,VWS V14.01,2013-10-21 19:31:00,
2013-10-21 14:32:00,54.2,32.2,29.90,WSW,248,3.0,5.0,43,0.00,,---,0.00,VWS V14.01,2013-10-21 19:32:00,
2013-10-21 14:33:00,54.2,31.6,29.90,West,270,1.0,3.0,42,0.00,,---,0.00,VWS V14.01,2013-10-21 19:33:00,
2013-10-21 14:34:00,54.2,32.2,29.90,SSW,202,2.0,6.0,43,0.00,,---,0.00,VWS V14.01,2013-10-21 19:34:00,
2013-10-21 14:35:00,54.3,32.3,29.90,SW,225,6.0,10.0,43,0.00,,---,0.00,VWS V14.01,2013-10-21 19:35:00,
2013-10-21 14:36:00,54.4,32.4,29.90,West,270,6.0,12.0,43,0.00,,---,0.00,VWS V14.01,2013-10-21 19:36:00,
2013-10-21 14:37:00,54.5,31.9,29.90,SW,225,5.0,10.0,42,0.00,,---,0.00,VWS V14.01,2013-10-21 19:37:00,
2013-10-21 14:38:00,54.6,32.0,29.90,WSW,248,5.0,7.0,42,0.00,,---,0.00,VWS V14.01,2013-10-21 19:38:00,
2013-10-21 14:39:00,54.7,30.9,29.90,NW,315,2.0,3.0,40,0.00,,---,0.00,VWS V14.01,2013-10-21 19:39:00,
2013-10-21 14:40:00,54.7,31.5,29.90,WNW,292,2.0,4.0,41,0.00,,---,0.00,VWS V14.01,2013-10-21 19:40:00,
2013-10-21 14:41:00,54.7,32.1,29.90,WNW,292,1.0,3.0,42,0.00,,---,0.00,VWS V14.01,2013-10-21 19:41:00,
2013-10-21 14:42:00,54.7,32.7,29.90,West,270,2.0,3.0,43,0.00,,---,0.00,VWS V14.01,2013-10-21 19:42:00,
2013-10-21 14:43:00,54.7,31.5,29.90,NNW,338,3.0,8.0,41,0.00,,---,0.00,VWS V14.01,2013-10-21 19:43:00,
2013-10-21 14:44:00,54.6,32.0,29.90,West,270,3.0,6.0,42,0.00,,---,0.00,VWS V14.01,2013-10-21 19:44:00,
2013-10-21 14:45:00,54.6,31.4,29.90,SW,225,7.0,11.0,41,0.00,,---,0.00,VWS V14.01,2013-10-21 19:45:00,
2013-10-21 14:46:00,54.6,31.4,29.90,North,0,3.0,5.0,41,0.00,,---,0.00,VWS V14.01,2013-10-21 19:46:00,
2013-10-21 14:47:00,54.6,31.4,29.90,NNE,22,2.0,3.0,41,0.00,,---,0.00,VWS V14.01,2013-10-21 19:47:00,
2013-10-21 14:48:00,54.5,31.3,29.90,WSW,248,2.0,5.0,41,0.00,,---,0.00,VWS V14.01,2013-10-21 19:48:00,
2013-10-21 14:49:00,54.5,31.9,29.90,SSW,202,5.0,8.0,42,0.00,,---,0.00,VWS V14.01,2013-10-21 19:49:00,
2013-10-21 14:50:00,54.4,30.6,29.90,SW,225,7.0,10.0,40,0.00,,---,0.00,VWS V14.01,2013-10-21 19:50:00,
2013-10-21 14:51:00,54.4,31.2,29.90,SW,225,7.0,12.0,41,0.00,,---,0.00,VWS V14.01,2013-10-21 19:51:00,
2013-10-21 14:52:00,54.4,30.6,29.90,West,270,4.0,10.0,40,0.00,,---,0.00,VWS V14.01,2013-10-21 19:52:00,
2013-10-21 14:53:00,54.4,31.2,29.90,West,270,3.0,10.0,41,0.00,,---,0.00,VWS V14.01,2013-10-21 19:53:00,
2013-10-21 14:54:00,54.5,30.1,29.90,NNW,338,2.0,5.0,39,0.00,,---,0.00,VWS V14.01,2013-10-21 19:54:00,
2013-10-21 14:55:00,54.5,30.1,29.90,WNW,292,2.0,5.0,39,0.00,,---,0.00,VWS V14.01,2013-10-21 19:55:00,
2013-10-21 14:56:00,54.4,30.6,29.90,West,270,5.0,8.0,40,0.00,,---,0.00,VWS V14.01,2013-10-21 19:56:00,
2013-10-21 14:57:00,54.4,30.6,29.90,West,270,2.0,5.0,40,0.00,,---,0.00,VWS V14.01,2013-10-21 19:57:00,
2013-10-21 14:58:00,54.4,31.2,29.90,West,270,3.0,6.0,41,0.00,,---,0.00,VWS V14.01,2013-10-21 19:58:00,
2013-10-21 14:59:00,54.4,30.6,29.90,SW,225,5.0,8.0,40,0.00,,---,0.00,VWS V14.01,2013-10-21 19:59:00,
2013-10-21 15:00:00,54.4,30.0,29.90,West,270,3.0,5.0,39,0.00,,---,0.00,VWS V14.01,2013-10-21 20:00:00,
2013-10-21 15:01:00,54.4,31.2,29.90,West,270,3.0,5.0,41,0.00,,---,0.00,VWS V14.01,2013-10-21 20:01:00,
2013-10-21 15:02:00,54.4,30.6,29.90,NW,315,1.0,2.0,40,0.00,,---,0.00,VWS V14.01,2013-10-21 20:02:00,
2013-10-21 15:03:00,54.3,29.9,29.90,NW,315,2.0,3.0,39,0.00,,---,0.00,VWS V14.01,2013-10-21 20:03:00,
2013-10-21 15:04:00,54.2,29.8,29.90,West,270,2.0,4.0,39,0.00,,---,0.00,VWS V14.01,2013-10-21 20:04:00,
2013-10-21 15:05:00,54.1,30.3,29.90,West,270,2.0,4.0,40,0.00,,---,0.00,VWS V14.01,2013-10-21 20:05:00,
2013-10-21 15:06:00,54.1,29.7,29.90,West,270,2.0,4.0,39,0.00,,---,0.00,VWS V14.01,2013-10-21 20:06:00,
2013-10-21 15:07:00,54.1,30.3,29.90,West,270,2.0,4.0,40,0.00,,---,0.00,VWS V14.01,2013-10-21 20:07:00,
2013-10-21 15:08:00,54.1,30.3,29.90,West,270,2.0,4.0,40,0.00,,---,0.00,VWS V14.01,2013-10-21 20:08:00,
2013-10-21 15:09:00,54.0,30.9,29.90,WNW,292,1.0,2.0,41,0.00,,---,0.00,VWS V14.01,2013-10-21 20:09:00,
2013-10-21 15:10:00,54.0,30.9,29.90,WSW,248,1.0,4.0,41,0.00,,---,0.00,VWS V14.01,2013-10-21 20:10:00,
2013-10-21 15:11:00,54.1,30.9,29.90,WSW,248,4.0,8.0,41,0.00,,---,0.00,VWS V14.01,2013-10-21 20:11:00,
2013-10-21 15:12:00,54.2,31.0,29.90,NW,315,1.0,2.0,41,0.00,,---,0.00,VWS V14.01,2013-10-21 20:12:00,
2013-10-21 15:13:00,54.2,31.0,29.90,West,270,5.0,9.0,41,0.00,,---,0.00,VWS V14.01,2013-10-21 20:13:00,
2013-10-21 15:14:00,54.3,29.9,29.90,SW,225,5.0,8.0,39,0.00,,---,0.00,VWS V14.01,2013-10-21 20:14:00,
2013-10-21 15:15:00,54.3,31.1,29.91,NW,315,4.0,14.0,41,0.00,,---,0.00,VWS V14.01,2013-10-21 20:15:00,
2013-10-21 15:16:00,54.4,31.2,29.91,WNW,292,4.0,10.0,41,0.00,,---,0.00,VWS V14.01,2013-10-21 20:16:00,
2013-10-21 15:17:00,54.4,30.6,29.91,WNW,292,1.0,3.0,40,0.00,,---,0.00,VWS V14.01,2013-10-21 20:17:00,
2013-10-21 15:18:00,54.4,30.0,29.91,West,270,3.0,5.0,39,0.00,,---,0.00,VWS V14.01,2013-10-21 20:18:00,
2013-10-21 15:19:00,54.3,29.9,29.91,West,270,2.0,5.0,39,0.00,,---,0.00,VWS V14.01,2013-10-21 20:19:00,
2013-10-21 15:20:00,54.2,29.8,29.91,WNW,292,2.0,5.0,39,0.00,,---,0.00,VWS V14.01,2013-10-21 20:20:00,
2013-10-21 15:21:00,54.2,29.8,29.91,North,0,1.0,2.0,39,0.00,,---,0.00,VWS V14.01,2013-10-21 20:21:00,
2013-10-21 15:22:00,54.1,29.7,29.91,West,270,2.0,5.0,39,0.00,,---,0.00,VWS V14.01,2013-10-21 20:22:00,
2013-10-21 15:23:00,54.0,29.6,29.91,West,270,2.0,5.0,39,0.00,,---,0.00,VWS V14.01,2013-10-21 20:23:00,
2013-10-21 15:24:00,53.9,30.1,29.91,West,270,3.0,5.0,40,0.00,,---,0.00,VWS V14.01,2013-10-21 20:24:00,
2013-10-21 15:25:00,53.9,30.1,29.91,West,270,2.0,4.0,40,0.00,,---,0.00,VWS V14.01,2013-10-21 20:25:00,
2013-10-21 15:26:00,53.9,29.5,29.91,ENE,68,2.0,5.0,39,0.00,,---,0.00,VWS V14.01,2013-10-21 20:26:00,
2013-10-21 15:27:00,53.8,29.4,29.91,North,0,1.0,2.0,39,0.00,,---,0.00,VWS V14.01,2013-10-21 20:27:00,
2013-10-21 15:28:00,53.7,29.4,29.91,South,180,2.0,5.0,39,0.00,,---,0.00,VWS V14.01,2013-10-21 20:28:00,
2013-10-21 15:29:00,53.6,29.9,29.91,West,270,3.0,5.0,40,0.00,,---,0.00,VWS V14.01,2013-10-21 20:29:00,
2013-10-21 15:30:00,53.6,29.9,29.91,SW,225,4.0,7.0,40,0.00,,---,0.00,VWS V14.01,2013-10-21 20:30:00,
2013-10-21 15:31:00,53.5,30.4,29.91,WNW,292,2.0,4.0,41,0.00,,---,0.00,VWS V14.01,2013-10-21 20:31:00,
2013-10-21 15:32:00,53.5,29.8,29.91,West,270,4.0,6.0,40,0.00,,---,0.00,VWS V14.01,2013-10-21 20:32:00,
2013-10-21 15:33:00,53.5,29.8,29.91,WNW,292,1.0,4.0,40,0.00,,---,0.00,VWS V14.01,2013-10-21 20:33:00,
2013-10-21 15:34:00,53.4,29.1,29.91,WNW,292,4.0,10.0,39,0.00,,---,0.00,VWS V14.01,2013-10-21 20:34:00,
2013-10-21 15:35:00,53.4,29.7,29.91,West,270,3.0,8.0,40,0.00,,---,0.00,VWS V14.01,2013-10-21 20:35:00,
2013-10-21 15:36:00,53.4,29.7,29.91,West,270,5.0,9.0,40,0.00,,---,0.00,VWS V14.01,2013-10-21 20:36:00,
2013-10-21 15:37:00,53.4,29.7,29.91,West,270,2.0,5.0,40,0.00,,---,0.00,VWS V14.01,2013-10-21 20:37:00,
2013-10-21 15:38:00,53.3,30.2,29.91,SW,225,5.0,10.0,41,0.00,,---,0.00,VWS V14.01,2013-10-21 20:38:00,
2013-10-21 15:39:00,53.3,29.0,29.91,WSW,248,3.0,6.0,39,0.00,,---,0.00,VWS V14.01,2013-10-21 20:39:00,
2013-10-21 15:40:00,53.3,29.6,29.91,SSW,202,2.0,4.0,40,0.00,,---,0.00,VWS V14.01,2013-10-21 20:40:00,
2013-10-21 15:41:00,53.3,29.0,29.91,WSW,248,2.0,5.0,39,0.00,,---,0.00,VWS V14.01,2013-10-21 20:41:00,
2013-10-21 15:42:00,53.2,30.1,29.91,SW,225,5.0,9.0,41,0.00,,---,0.00,VWS V14.01,2013-10-21 20:42:00,
2013-10-21 15:43:00,53.2,29.5,29.91,WSW,248,3.0,6.0,40,0.00,,---,0.00,VWS V14.01,2013-10-21 20:43:00,
2013-10-21 15:44:00,53.2,29.5,29.91,South,180,3.0,10.0,40,0.00,,---,0.00,VWS V14.01,2013-10-21 20:44:00,
2013-10-21 15:45:00,53.2,29.5,29.91,WNW,292,2.0,3.0,40,0.00,,---,0.00,VWS V14.01,2013-10-21 20:45:00,
2013-10-21 15:46:00,53.2,30.1,29.91,West,270,3.0,5.0,41,0.00,,---,0.00,VWS V14.01,2013-10-21 20:46:00,
2013-10-21 15:47:00,53.2,30.7,29.91,West,270,4.0,10.0,42,0.00,,---,0.00,VWS V14.01,2013-10-21 20:47:00,
2013-10-21 15:48:00,53.2,29.5,29.91,WSW,248,2.0,6.0,40,0.00,,---,0.00,VWS V14.01,2013-10-21 20:48:00,
2013-10-21 15:49:00,53.2,28.9,29.91,WSW,248,3.0,6.0,39,0.00,,---,0.00,VWS V14.01,2013-10-21 20:49:00,
2013-10-21 15:50:00,53.2,28.9,29.91,WSW,248,6.0,14.0,39,0.00,,---,0.00,VWS V14.01,2013-10-21 20:50:00,
2013-10-21 15:51:00,53.3,29.0,29.91,West,270,2.0,7.0,39,0.00,,---,0.00,VWS V14.01,2013-10-21 20:51:00,
2013-10-21 15:52:00,53.3,29.0,29.91,West,270,1.0,3.0,39,0.00,,---,0.00,VWS V14.01,2013-10-21 20:52:00,
2013-10-21 15:53:00,53.3,29.0,29.91,WNW,292,1.0,4.0,39,0.00,,---,0.00,VWS V14.01,2013-10-21 20:53:00,
2013-10-21 15:54:00,53.3,29.0,29.91,West,270,2.0,2.0,39,0.00,,---,0.00,VWS V14.01,2013-10-21 20:54:00,
2013-10-21 15:55:00,53.2,29.5,29.91,NW,315,2.0,4.0,40,0.00,,---,0.00,VWS V14.01,2013-10-21 20:55:00,
2013-10-21 15:56:00,53.2,29.5,29.91,SW,225,4.0,6.0,40,0.00,,---,0.00,VWS V14.01,2013-10-21 20:56:00,
2013-10-21 15:57:00,53.1,29.4,29.91,SSW,202,5.0,11.0,40,0.00,,---,0.00,VWS V14.01,2013-10-21 20:57:00,
2013-10-21 15:58:00,53.1,29.4,29.91,West,270,1.0,4.0,40,0.00,,---,0.00,VWS V14.01,2013-10-21 20:58:00,
2013-10-21 15:59:00,53.1,29.4,29.91,SW,225,4.0,7.0,40,0.00,,---,0.00,VWS V14.01,2013-10-21 20:59:00,
2013-10-21 16:00:00,53.1,28.8,29.91,WSW,248,4.0,7.0,39,0.00,,---,0.00,VWS V14.01,2013-10-21 21:00:00,
2013-10-21 16:01:00,53.1,28.8,29.91,WSW,248,2.0,4.0,39,0.00,,---,0.00,VWS V14.01,2013-10-21 21:01:00,
2013-10-21 16:02:00,53.2,28.9,29.91,SW,225,4.0,7.0,39,0.00,,---,0.00,VWS V14.01,2013-10-21 21:02:00,
2013-10-21 16:03:00,53.2,28.9,29.91,SW,225,6.0,10.0,39,0.00,,---,0.00,VWS V14.01,2013-10-21 21:03:00,
2013-10-21 16:04:00,53.2,28.9,29.91,WSW,248,2.0,4.0,39,0.00,,---,0.00,VWS V14.01,2013-10-21 21:04:00,
2013-10-21 16:05:00,53.3,29.6,29.91,SW,225,2.0,5.0,40,0.00,,---,0.00,VWS V14.01,2013-10-21 21:05:00,
2013-10-21 16:06:00,53.3,29.6,29.91,WSW,248,2.0,4.0,40,0.00,,---,0.00,VWS V14.01,2013-10-21 21:06:00,
2013-10-21 16:07:00,53.4,29.7,29.91,WSW,248,2.0,3.0,40,0.00,,---,0.00,VWS V14.01,2013-10-21 21:07:00,
2013-10-21 16:08:00,53.4,29.7,29.91,WSW,248,3.0,7.0,40,0.00,,---,0.00,VWS V14.01,2013-10-21 21:08:00,
2013-10-21 16:09:00,53.5,29.8,29.91,SW,225,6.0,8.0,40,0.00,,---,0.00,VWS V14.01,2013-10-21 21:09:00,
2013-10-21 16:10:00,53.5,29.2,29.91,NNW,338,1.0,2.0,39,0.00,,---,0.00,VWS V14.01,2013-10-21 21:10:00,
2013-10-21 16:11:00,53.4,29.1,29.91,NW,315,3.0,4.0,39,0.00,,---,0.00,VWS V14.01,2013-10-21 21:11:00,
2013-10-21 16:12:00,53.2,27.0,29.91,SW,225,3.0,6.0,36,0.00,,---,0.00,VWS V14.01,2013-10-21 21:12:00,
2013-10-21 16:13:00,53.1,28.2,29.91,NNW,338,2.0,5.0,38,0.00,,---,0.00,VWS V14.01,2013-10-21 21:13:00,
2013-10-21 16:14:00,53.0,28.7,29.91,West,270,2.0,2.0,39,0.00,,---,0.00,VWS V14.01,2013-10-21 21:14:00,
2013-10-21 16:15:00,52.9,28.0,29.92,West,270,1.0,3.0,38,0.00,,---,0.00,VWS V14.01,2013-10-21 21:15:00,
2013-10-21 16:16:00,52.8,29.2,29.92,SW,225,4.0,6.0,40,0.00,,---,0.00,VWS V14.01,2013-10-21 21:16:00,
2013-10-21 16:17:00,52.8,28.5,29.92,West,270,2.0,4.0,39,0.00,,---,0.00,VWS V14.01,2013-10-21 21:17:00,
2013-10-21 16:18:00,52.7,29.1,29.92,West,270,3.0,7.0,40,0.00,,---,0.00,VWS V14.01,2013-10-21 21:18:00,
2013-10-21 16:19:00,52.7,28.5,29.92,West,270,2.0,4.0,39,0.00,,---,0.00,VWS V14.01,2013-10-21 21:19:00,
2013-10-21 16:20:00,52.6,28.4,29.92,WNW,292,1.0,2.0,39,0.00,,---,0.00,VWS V14.01,2013-10-21 21:20:00,
2013-10-21 16:21:00,52.5,28.3,29.92,WNW,292,1.0,3.0,39,0.00,,---,0.00,VWS V14.01,2013-10-21 21:21:00,
2013-10-21 16:22:00,52.4,28.2,29.92,West,270,4.0,8.0,39,0.00,,---,0.00,VWS V14.01,2013-10-21 21:22:00,
2013-10-21 16:23:00,52.3,27.5,29.92,West,270,1.0,3.0,38,0.00,,---,0.00,VWS V14.01,2013-10-21 21:23:00,
2013-10-21 16:24:00,52.3,27.5,29.92,WNW,292,1.0,2.0,38,0.00,,---,0.00,VWS V14.01,2013-10-21 21:24:00,
2013-10-21 16:25:00,52.2,27.4,29.92,WNW,292,1.0,3.0,38,0.00,,---,0.00,VWS V14.01,2013-10-21 21:25:00,
2013-10-21 16:26:00,52.1,27.9,29.92,WNW,292,1.0,3.0,39,0.00,,---,0.00,VWS V14.01,2013-10-21 21:26:00,
2013-10-21 16:27:00,52.1,27.3,29.92,NW,315,1.0,3.0,38,0.00,,---,0.00,VWS V14.01,2013-10-21 21:27:00,
2013-10-21 16:28:00,51.9,27.7,29.92,West,270,1.0,2.0,39,0.00,,---,0.00,VWS V14.01,2013-10-21 21:28:00,
2013-10-21 16:29:00,51.9,27.7,29.92,West,270,1.0,2.0,39,0.00,,---,0.00,VWS V14.01,2013-10-21 21:29:00,
2013-10-21 16:30:00,51.8,28.3,29.92,West,270,2.0,7.0,40,0.00,,---,0.00,VWS V14.01,2013-10-21 21:30:00,
2013-10-21 16:31:00,51.7,28.2,29.92,SW,225,5.0,7.0,40,0.00,,---,0.00,VWS V14.01,2013-10-21 21:31:00,
2013-10-21 16:32:00,51.5,28.0,29.92,WSW,248,3.0,8.0,40,0.00,,---,0.00,VWS V14.01,2013-10-21 21:32:00,
2013-10-21 16:33:00,51.4,27.9,29.92,WSW,248,2.0,4.0,40,0.00,,---,0.00,VWS V14.01,2013-10-21 21:33:00,
2013-10-21 16:34:00,51.3,28.4,29.92,WSW,248,2.0,2.0,41,0.00,,---,0.00,VWS V14.01,2013-10-21 21:34:00,
2013-10-21 16:35:00,51.2,28.3,29.92,WNW,292,1.0,2.0,41,0.00,,---,0.00,VWS V14.01,2013-10-21 21:35:00,
2013-10-21 16:36:00,51.1,27.6,29.92,WNW,292,2.0,6.0,40,0.00,,---,0.00,VWS V14.01,2013-10-21 21:36:00,
2013-10-21 16:37:00,51.0,27.5,29.92,WNW,292,1.0,2.0,40,0.00,,---,0.00,VWS V14.01,2013-10-21 21:37:00,
2013-10-21 16:38:00,50.8,27.4,29.92,WNW,292,1.0,2.0,40,0.00,,---,0.00,VWS V14.01,2013-10-21 21:38:00,
2013-10-21 16:39:00,50.7,26.7,29.92,West,270,2.0,3.0,39,0.00,,---,0.00,VWS V14.01,2013-10-21 21:39:00,
2013-10-21 16:40:00,50.6,27.2,29.92,West,270,2.0,5.0,40,0.00,,---,0.00,VWS V14.01,2013-10-21 21:40:00,
2013-10-21 16:41:00,50.5,27.7,29.92,WSW,248,2.0,5.0,41,0.00,,---,0.00,VWS V14.01,2013-10-21 21:41:00,
2013-10-21 16:42:00,50.3,26.9,29.92,WSW,248,2.0,7.0,40,0.00,,---,0.00,VWS V14.01,2013-10-21 21:42:00,
2013-10-21 16:43:00,50.2,27.4,29.92,WSW,248,2.0,3.0,41,0.00,,---,0.00,VWS V14.01,2013-10-21 21:43:00,
2013-10-21 16:44:00,50.1,27.3,29.92,West,270,4.0,10.0,41,0.00,,---,0.00,VWS V14.01,2013-10-21 21:44:00,
2013-10-21 16:45:00,50.0,26.6,29.92,West,270,1.0,1.0,40,0.00,,---,0.00,VWS V14.01,2013-10-21 21:45:00,
2013-10-21 16:46:00,49.9,27.1,29.92,West,270,3.0,6.0,41,0.00,,---,0.00,VWS V14.01,2013-10-21 21:46:00,
2013-10-21 16:47:00,49.8,27.1,29.92,West,270,3.0,9.0,41,0.00,,---,0.00,VWS V14.01,2013-10-21 21:47:00,
2013-10-21 16:48:00,49.7,27.0,29.92,West,270,1.0,2.0,41,0.00,,---,0.00,VWS V14.01,2013-10-21 21:48:00,
2013-10-21 16:49:00,49.6,27.5,29.92,West,270,1.0,2.0,42,0.00,,---,0.00,VWS V14.01,2013-10-21 21:49:00,
2013-10-21 16:50:00,49.5,27.4,29.92,SSW,202,3.0,7.0,42,0.00,,---,0.00,VWS V14.01,2013-10-21 21:50:00,
2013-10-21 16:51:00,49.5,27.4,29.92,SW,225,2.0,6.0,42,0.00,,---,0.00,VWS V14.01,2013-10-21 21:51:00,
2013-10-21 16:52:00,49.4,27.9,29.92,WNW,292,1.0,2.0,43,0.00,,---,0.00,VWS V14.01,2013-10-21 21:52:00,
2013-10-21 16:53:00,49.3,26.6,29.92,NNW,338,1.0,2.0,41,0.00,,---,0.00,VWS V14.01,2013-10-21 21:53:00,
2013-10-21 16:54:00,49.2,26.5,29.92,NW,315,1.0,1.0,41,0.00,,---,0.00,VWS V14.01,2013-10-21 21:54:00,
2013-10-21 16:55:00,49.1,27.0,29.92,NW,315,1.0,2.0,42,0.00,,---,0.00,VWS V14.01,2013-10-21 21:55:00,
2013-10-21 16:56:00,49.1,27.0,29.92,West,270,3.0,5.0,42,0.00,,---,0.00,VWS V14.01,2013-10-21 21:56:00,
2013-10-21 16:57:00,49.0,26.3,29.92,NW,315,1.0,2.0,41,0.00,,---,0.00,VWS V14.01,2013-10-21 21:57:00,
2013-10-21 16:58:00,49.0,26.9,29.92,West,270,3.0,4.0,42,0.00,,---,0.00,VWS V14.01,2013-10-21 21:58:00,
2013-10-21 16:59:00,48.8,26.2,29.92,West,270,1.0,2.0,41,0.00,,---,0.00,VWS V14.01,2013-10-21 21:59:00,
2013-10-21 17:00:00,48.8,26.7,29.93,West,270,2.0,5.0,42,0.00,,---,0.00,VWS V14.01,2013-10-21 22:00:00,
2013-10-21 17:01:00,48.7,26.6,29.93,WNW,292,3.0,7.0,42,0.00,,---,0.00,VWS V14.01,2013-10-21 22:01:00,
2013-10-21 17:02:00,48.7,26.6,29.93,West,270,2.0,4.0,42,0.00,,---,0.00,VWS V14.01,2013-10-21 22:02:00,
2013-10-21 17:03:00,48.6,26.6,29.93,West,270,3.0,6.0,42,0.00,,---,0.00,VWS V14.01,2013-10-21 22:03:00,
2013-10-21 17:04:00,48.5,27.0,29.93,NW,315,1.0,2.0,43,0.00,,---,0.00,VWS V14.01,2013-10-21 22:04:00,
2013-10-21 17:05:00,48.5,27.0,29.93,SSW,202,1.0,4.0,43,0.00,,---,0.00,VWS V14.01,2013-10-21 22:05:00,
2013-10-21 17:06:00,48.3,26.3,29.93,West,270,1.0,3.0,42,0.00,,---,0.00,VWS V14.01,2013-10-21 22:06:00,
2013-10-21 17:07:00,48.3,26.9,29.93,West,270,1.0,2.0,43,0.00,,---,0.00,VWS V14.01,2013-10-21 22:07:00,
2013-10-21 17:08:00,48.2,26.8,29.93,West,270,1.0,4.0,43,0.00,,---,0.00,VWS V14.01,2013-10-21 22:08:00,
2013-10-21 17:09:00,48.2,26.8,29.93,West,270,1.0,2.0,43,0.00,,---,0.00,VWS V14.01,2013-10-21 22:09:00,
2013-10-21 17:10:00,48.1,26.1,29.93,West,270,1.0,2.0,42,0.00,,---,0.00,VWS V14.01,2013-10-21 22:10:00,
2013-10-21 17:11:00,48.0,26.6,29.93,West,270,0.0,1.0,43,0.00,,---,0.00,VWS V14.01,2013-10-21 22:11:00,
2013-10-21 17:12:00,48.0,26.6,29.93,West,270,1.0,2.0,43,0.00,,---,0.00,VWS V14.01,2013-10-21 22:12:00,
2013-10-21 17:13:00,47.9,26.5,29.93,NW,315,3.0,7.0,43,0.00,,---,0.00,VWS V14.01,2013-10-21 22:13:00,
2013-10-21 17:14:00,47.8,27.0,29.93,NW,315,1.0,2.0,44,0.00,,---,0.00,VWS V14.01,2013-10-21 22:14:00,
2013-10-21 17:15:00,47.8,27.0,29.93,West,270,3.0,5.0,44,0.00,,---,0.00,VWS V14.01,2013-10-21 22:15:00,
2013-10-21 17:16:00,47.7,26.9,29.93,West,270,1.0,4.0,44,0.00,,---,0.00,VWS V14.01,2013-10-21 22:16:00,
2013-10-21 17:17:00,47.7,26.3,29.93,West,270,1.0,2.0,43,0.00,,---,0.00,VWS V14.01,2013-10-21 22:17:00,
2013-10-21 17:18:00,47.6,26.8,29.93,West,270,2.0,4.0,44,0.00,,---,0.00,VWS V14.01,2013-10-21 22:18:00,
2013-10-21 17:19:00,47.5,26.7,29.93,West,270,1.0,2.0,44,0.00,,---,0.00,VWS V14.01,2013-10-21 22:19:00,
2013-10-21 17:20:00,47.5,26.7,29.93,NW,315,1.0,2.0,44,0.00,,---,0.00,VWS V14.01,2013-10-21 22:20:00,
2013-10-21 17:21:00,47.4,26.0,29.93,NNW,338,1.0,1.0,43,0.00,,---,0.00,VWS V14.01,2013-10-21 22:21:00,
2013-10-21 17:22:00,47.4,26.0,29.93,NW,315,1.0,2.0,43,0.00,,---,0.00,VWS V14.01,2013-10-21 22:22:00,
2013-10-21 17:23:00,47.3,26.5,29.93,NW,315,1.0,3.0,44,0.00,,---,0.00,VWS V14.01,2013-10-21 22:23:00,
2013-10-21 17:24:00,47.3,26.5,29.93,NW,315,1.0,2.0,44,0.00,,---,0.00,VWS V14.01,2013-10-21 22:24:00,
2013-10-21 17:25:00,47.2,26.4,29.93,NW,315,1.0,2.0,44,0.00,,---,0.00,VWS V14.01,2013-10-21 22:25:00,
2013-10-21 17:26:00,47.2,26.4,29.93,West,270,1.0,3.0,44,0.00,,---,0.00,VWS V14.01,2013-10-21 22:26:00,
2013-10-21 17:27:00,47.1,26.3,29.93,West,270,2.0,3.0,44,0.00,,---,0.00,VWS V14.01,2013-10-21 22:27:00,
2013-10-21 17:28:00,47.1,26.3,29.93,NE,45,1.0,2.0,44,0.00,,---,0.00,VWS V14.01,2013-10-21 22:28:00,
2013-10-21 17:29:00,47.0,26.8,29.93,WNW,292,2.0,4.0,45,0.00,,---,0.00,VWS V14.01,2013-10-21 22:29:00,
2013-10-21 17:30:00,47.0,26.2,29.94,West,270,3.0,5.0,44,0.00,,---,0.00,VWS V14.01,2013-10-21 22:30:00,
2013-10-21 17:31:00,46.9,26.1,29.94,West,270,1.0,2.0,44,0.00,,---,0.00,VWS V14.01,2013-10-21 22:31:00,
2013-10-21 17:32:00,46.8,26.0,29.94,West,270,1.0,3.0,44,0.00,,---,0.00,VWS V14.01,2013-10-21 22:32:00,
2013-10-21 17:33:00,46.8,26.6,29.94,West,270,1.0,3.0,45,0.00,,---,0.00,VWS V14.01,2013-10-21 22:33:00,
2013-10-21 17:34:00,46.8,26.6,29.94,SW,225,1.0,4.0,45,0.00,,---,0.00,VWS V14.01,2013-10-21 22:34:00,
2013-10-21 17:35:00,46.7,26.5,29.94,SW,225,1.0,1.0,45,0.00,,---,0.00,VWS V14.01,2013-10-21 22:35:00,
2013-10-21 17:36:00,46.7,26.0,29.94,SW,225,1.0,1.0,44,0.00,,---,0.00,VWS V14.01,2013-10-21 22:36:00,
2013-10-21 17:37:00,46.6,26.4,29.94,SW,225,1.0,1.0,45,0.00,,---,0.00,VWS V14.01,2013-10-21 22:37:00,
2013-10-21 17:38:00,46.6,26.9,29.94,SW,225,1.0,2.0,46,0.00,,---,0.00,VWS V14.01,2013-10-21 22:38:00,
2013-10-21 17:39:00,46.6,26.4,29.94,West,270,1.0,4.0,45,0.00,,---,0.00,VWS V14.01,2013-10-21 22:39:00,
2013-10-21 17:40:00,46.5,26.3,29.94,West,270,0.0,1.0,45,0.00,,---,0.00,VWS V14.01,2013-10-21 22:40:00,
2013-10-21 17:41:00,46.5,26.3,29.94,West,270,0.0,1.0,45,0.00,,---,0.00,VWS V14.01,2013-10-21 22:41:00,
2013-10-21 17:42:00,46.4,26.2,29.94,West,270,0.0,1.0,45,0.00,,---,0.00,VWS V14.01,2013-10-21 22:42:00,
2013-10-21 17:43:00,46.4,26.2,29.94,West,270,1.0,2.0,45,0.00,,---,0.00,VWS V14.01,2013-10-21 22:43:00,
2013-10-21 17:44:00,46.3,26.1,29.94,West,270,1.0,2.0,45,0.00,,---,0.00,VWS V14.01,2013-10-21 22:44:00,
2013-10-21 17:45:00,46.3,26.1,29.94,West,270,1.0,1.0,45,0.00,,---,0.00,VWS V14.01,2013-10-21 22:45:00,
2013-10-21 17:46:00,46.3,26.7,29.94,West,270,0.0,1.0,46,0.00,,---,0.00,VWS V14.01,2013-10-21 22:46:00,
2013-10-21 17:47:00,46.3,26.7,29.94,NNW,338,1.0,2.0,46,0.00,,---,0.00,VWS V14.01,2013-10-21 22:47:00,
2013-10-21 17:48:00,46.2,26.6,29.94,NNW,338,1.0,2.0,46,0.00,,---,0.00,VWS V14.01,2013-10-21 22:48:00,
2013-10-21 17:49:00,46.1,26.5,29.94,NNW,338,1.0,2.0,46,0.00,,---,0.00,VWS V14.01,2013-10-21 22:49:00,
2013-10-21 17:50:00,46.1,26.5,29.94,NNW,338,1.0,1.0,46,0.00,,---,0.00,VWS V14.01,2013-10-21 22:50:00,
2013-10-21 17:51:00,46.0,26.4,29.94,NNW,338,0.0,1.0,46,0.00,,---,0.00,VWS V14.01,2013-10-21 22:51:00,
2013-10-21 17:52:00,46.0,26.4,29.94,NNW,338,0.0,1.0,46,0.00,,---,0.00,VWS V14.01,2013-10-21 22:52:00,
2013-10-21 17:53:00,45.9,26.3,29.94,NNW,338,0.0,1.0,46,0.00,,---,0.00,VWS V14.01,2013-10-21 22:53:00,
2013-10-21 17:54:00,45.9,26.8,29.94,NNW,338,0.0,1.0,47,0.00,,---,0.00,VWS V14.01,2013-10-21 22:54:00,
2013-10-21 17:55:00,45.9,26.8,29.94,NNW,338,0.0,1.0,47,0.00,,---,0.00,VWS V14.01,2013-10-21 22:55:00,
2013-10-21 17:56:00,45.8,26.7,29.94,NNW,338,0.0,1.0,47,0.00,,---,0.00,VWS V14.01,2013-10-21 22:56:00,
2013-10-21 17:57:00,45.8,26.7,29.94,NNW,338,0.0,0.0,47,0.00,,---,0.00,VWS V14.01,2013-10-21 22:57:00,
2013-10-21 17:58:00,45.7,26.6,29.94,NNW,338,0.0,0.0,47,0.00,,---,0.00,VWS V14.01,2013-10-21 22:58:00,
2013-10-21 17:59:00,45.6,26.5,29.94,NNW,338,0.0,0.0,47,0.00,,---,0.00,VWS V14.01,2013-10-21 22:59:00,
2013-10-21 18:00:00,45.6,27.1,29.95,NNW,338,0.0,1.0,48,0.00,,---,0.00,VWS V14.01,2013-10-21 23:00:00,
2013-10-21 18:01:00,45.5,27.0,29.95,NNW,338,0.0,1.0,48,0.00,,---,0.00,VWS V14.01,2013-10-21 23:01:00,
2013-10-21 18:02:00,45.5,27.0,29.95,NNW,338,0.0,0.0,48,0.00,,---,0.00,VWS V14.01,2013-10-21 23:02:00,
2013-10-21 18:03:00,45.4,26.9,29.95,NNW,338,0.0,1.0,48,0.00,,---,0.00,VWS V14.01,2013-10-21 23:03:00,
2013-10-21 18:04:00,45.3,26.8,29.95,NNW,338,1.0,1.0,48,0.00,,---,0.00,VWS V14.01,2013-10-21 23:04:00,
2013-10-21 18:05:00,45.2,26.7,29.95,NNW,338,0.0,1.0,48,0.00,,---,0.00,VWS V14.01,2013-10-21 23:05:00,
2013-10-21 18:06:00,45.2,26.7,29.95,NNW,338,0.0,0.0,48,0.00,,---,0.00,VWS V14.01,2013-10-21 23:06:00,
2013-10-21 18:07:00,45.1,26.6,29.95,NNW,338,0.0,0.0,48,0.00,,---,0.00,VWS V14.01,2013-10-21 23:07:00,
2013-10-21 18:08:00,45.1,26.6,29.95,NNW,338,0.0,1.0,48,0.00,,---,0.00,VWS V14.01,2013-10-21 23:08:00,
2013-10-21 18:09:00,45.0,26.5,29.95,NNW,338,0.0,1.0,48,0.00,,---,0.00,VWS V14.01,2013-10-21 23:09:00,
2013-10-21 18:10:00,44.9,26.9,29.95,NNW,338,0.0,1.0,49,0.00,,---,0.00,VWS V14.01,2013-10-21 23:10:00,
2013-10-21 18:11:00,44.9,26.9,29.95,NNW,338,0.0,0.0,49,0.00,,---,0.00,VWS V14.01,2013-10-21 23:11:00,
2013-10-21 18:12:00,44.8,26.8,29.95,NNW,338,0.0,0.0,49,0.00,,---,0.00,VWS V14.01,2013-10-21 23:12:00,
2013-10-21 18:13:00,44.7,26.7,29.95,NNW,338,0.0,0.0,49,0.00,,---,0.00,VWS V14.01,2013-10-21 23:13:00,
2013-10-21 18:14:00,44.7,26.7,29.95,NNW,338,0.0,0.0,49,0.00,,---,0.00,VWS V14.01,2013-10-21 23:14:00,
2013-10-21 18:15:00,44.6,26.6,29.95,NNW,338,0.0,1.0,49,0.00,,---,0.00,VWS V14.01,2013-10-21 23:15:00,
2013-10-21 18:16:00,44.6,26.6,29.95,NNW,338,0.0,0.0,49,0.00,,---,0.00,VWS V14.01,2013-10-21 23:16:00,
2013-10-21 18:17:00,44.5,26.5,29.95,NNW,338,0.0,0.0,49,0.00,,---,0.00,VWS V14.01,2013-10-21 23:17:00,
2013-10-21 18:18:00,44.4,26.5,29.95,NNW,338,0.0,0.0,49,0.00,,---,0.00,VWS V14.01,2013-10-21 23:18:00,
2013-10-21 18:19:00,44.4,26.5,29.95,NNW,338,0.0,0.0,49,0.00,,---,0.00,VWS V14.01,2013-10-21 23:19:00,
2013-10-21 18:20:00,44.3,26.9,29.95,NNW,338,0.0,0.0,50,0.00,,---,0.00,VWS V14.01,2013-10-21 23:20:00,
2013-10-21 18:21:00,44.3,26.9,29.95,NNW,338,0.0,1.0,50,0.00,,---,0.00,VWS V14.01,2013-10-21 23:21:00,
2013-10-21 18:22:00,44.2,26.8,29.95,NNW,338,0.0,0.0,50,0.00,,---,0.00,VWS V14.01,2013-10-21 23:22:00,
2013-10-21 18:23:00,44.1,26.7,29.95,NNW,338,0.0,0.0,50,0.00,,---,0.00,VWS V14.01,2013-10-21 23:23:00,
2013-10-21 18:24:00,44.1,26.7,29.95,NNW,338,0.0,0.0,50,0.00,,---,0.00,VWS V14.01,2013-10-21 23:24:00,
2013-10-21 18:25:00,44.0,26.6,29.95,NNW,338,0.0,0.0,50,0.00,,---,0.00,VWS V14.01,2013-10-21 23:25:00,
2013-10-21 18:26:00,44.0,26.6,29.95,NNW,338,0.0,0.0,50,0.00,,---,0.00,VWS V14.01,2013-10-21 23:26:00,
2013-10-21 18:27:00,44.0,27.0,29.95,NNW,338,0.0,0.0,51,0.00,,---,0.00,VWS V14.01,2013-10-21 23:27:00,
2013-10-21 18:28:00,43.9,27.0,29.95,NNW,338,0.0,0.0,51,0.00,,---,0.00,VWS V14.01,2013-10-21 23:28:00,
2013-10-21 18:29:00,43.8,27.3,29.95,NNW,338,0.0,0.0,52,0.00,,---,0.00,VWS V14.01,2013-10-21 23:29:00,
2013-10-21 18:30:00,43.8,27.3,29.95,NNW,338,0.0,0.0,52,0.00,,---,0.00,VWS V14.01,2013-10-21 23:30:00,
2013-10-21 18:31:00,43.7,27.2,29.95,NNW,338,0.0,0.0,52,0.00,,---,0.00,VWS V14.01,2013-10-21 23:31:00,
2013-10-21 18:32:00,43.7,27.7,29.95,NNW,338,0.0,0.0,53,0.00,,---,0.00,VWS V14.01,2013-10-21 23:32:00,
2013-10-21 18:33:00,43.6,28.1,29.95,NNW,338,0.0,0.0,54,0.00,,---,0.00,VWS V14.01,2013-10-21 23:33:00,
2013-10-21 18:34:00,43.5,28.0,29.95,NNW,338,0.0,0.0,54,0.00,,---,0.00,VWS V14.01,2013-10-21 23:34:00,
2013-10-21 18:35:00,43.4,27.9,29.95,NNW,338,0.0,0.0,54,0.00,,---,0.00,VWS V14.01,2013-10-21 23:35:00,
2013-10-21 18:36:00,43.3,27.8,29.95,NNW,338,0.0,0.0,54,0.00,,---,0.00,VWS V14.01,2013-10-21 23:36:00,
2013-10-21 18:37:00,43.3,27.8,29.95,NNW,338,0.0,0.0,54,0.00,,---,0.00,VWS V14.01,2013-10-21 23:37:00,
2013-10-21 18:38:00,43.2,28.1,29.95,NNW,338,0.0,0.0,55,0.00,,---,0.00,VWS V14.01,2013-10-21 23:38:00,
2013-10-21 18:39:00,43.1,28.5,29.95,NNW,338,0.0,0.0,56,0.00,,---,0.00,VWS V14.01,2013-10-21 23:39:00,
2013-10-21 18:40:00,43.0,28.8,29.95,NNW,338,0.0,0.0,57,0.00,,---,0.00,VWS V14.01,2013-10-21 23:40:00,
2013-10-21 18:41:00,42.9,28.7,29.95,NNW,338,0.0,0.0,57,0.00,,---,0.00,VWS V14.01,2013-10-21 23:41:00,
2013-10-21 18:42:00,42.8,28.6,29.95,NNW,338,0.0,0.0,57,0.00,,---,0.00,VWS V14.01,2013-10-21 23:42:00,
2013-10-21 18:43:00,42.7,29.0,29.95,NNW,338,0.0,0.0,58,0.00,,---,0.00,VWS V14.01,2013-10-21 23:43:00,
2013-10-21 18:44:00,42.5,28.4,29.95,NNW,338,0.0,0.0,57,0.00,,---,0.00,VWS V14.01,2013-10-21 23:44:00,
2013-10-21 18:45:00,42.5,28.8,29.95,NNW,338,0.0,0.0,58,0.00,,---,0.00,VWS V14.01,2013-10-21 23:45:00,
2013-10-21 18:46:00,42.4,28.7,29.95,NNW,338,0.0,0.0,58,0.00,,---,0.00,VWS V14.01,2013-10-21 23:46:00,
2013-10-21 18:47:00,42.2,28.9,29.95,NNW,338,0.0,0.0,59,0.00,,---,0.00,VWS V14.01,2013-10-21 23:47:00,
2013-10-21 18:48:00,42.2,28.9,29.95,NNW,338,0.0,0.0,59,0.00,,---,0.00,VWS V14.01,2013-10-21 23:48:00,
2013-10-21 18:49:00,42.1,28.8,29.95,NNW,338,0.0,0.0,59,0.00,,---,0.00,VWS V14.01,2013-10-21 23:49:00,
2013-10-21 18:50:00,42.0,28.7,29.95,NNW,338,0.0,0.0,59,0.00,,---,0.00,VWS V14.01,2013-10-21 23:50:00,
2013-10-21 18:51:00,41.9,28.6,29.95,NNW,338,0.0,0.0,59,0.00,,---,0.00,VWS V14.01,2013-10-21 23:51:00,
2013-10-21 18:52:00,41.8,28.5,29.95,NNW,338,0.0,0.0,59,0.00,,---,0.00,VWS V14.01,2013-10-21 23:52:00,
2013-10-21 18:53:00,41.7,28.9,29.95,NNW,338,0.0,0.0,60,0.00,,---,0.00,VWS V14.01,2013-10-21 23:53:00,
2013-10-21 18:54:00,41.6,28.8,29.95,NNW,338,0.0,0.0,60,0.00,,---,0.00,VWS V14.01,2013-10-21 23:54:00,
2013-10-21 18:55:00,41.5,28.7,29.95,NNW,338,0.0,0.0,60,0.00,,---,0.00,VWS V14.01,2013-10-21 23:55:00,
2013-10-21 18:56:00,41.4,28.6,29.95,NNW,338,0.0,0.0,60,0.00,,---,0.00,VWS V14.01,2013-10-21 23:56:00,
2013-10-21 18:57:00,41.3,28.9,29.95,NNW,338,0.0,0.0,61,0.00,,---,0.00,VWS V14.01,2013-10-21 23:57:00,
2013-10-21 18:58:00,41.3,28.9,29.95,NNW,338,0.0,0.0,61,0.00,,---,0.00,VWS V14.01,2013-10-21 23:58:00,
2013-10-21 18:59:00,41.2,28.8,29.95,NNW,338,0.0,0.0,61,0.00,,---,0.00,VWS V14.01,2013-10-21 23:59:00,
2013-10-21 19:00:00,41.1,29.1,29.95,NNW,338,0.0,0.0,62,0.00,,---,0.00,VWS V14.01,2013-10-22 00:00:00,
2013-10-21 19:01:00,41.1,29.1,29.95,NNW,338,0.0,0.0,62,0.00,,---,0.00,VWS V14.01,2013-10-22 00:01:00,
2013-10-21 19:02:00,41.0,28.6,29.95,NNW,338,0.0,0.0,61,0.00,,---,0.00,VWS V14.01,2013-10-22 00:02:00,
2013-10-21 19:03:00,40.9,28.5,29.95,NNW,338,0.0,0.0,61,0.00,,---,0.00,VWS V14.01,2013-10-22 00:03:00,
2013-10-21 19:04:00,40.8,28.4,29.95,NNW,338,0.0,0.0,61,0.00,,---,0.00,VWS V14.01,2013-10-22 00:04:00,
2013-10-21 19:05:00,40.7,28.7,29.95,NNW,338,0.0,0.0,62,0.00,,---,0.00,VWS V14.01,2013-10-22 00:05:00,
2013-10-21 19:06:00,40.6,28.6,29.95,NNW,338,0.0,0.0,62,0.00,,---,0.00,VWS V14.01,2013-10-22 00:06:00,
2013-10-21 19:07:00,40.6,28.6,29.95,NNW,338,0.0,0.0,62,0.00,,---,0.00,VWS V14.01,2013-10-22 00:07:00,
2013-10-21 19:08:00,40.6,28.2,29.95,NNW,338,0.0,0.0,61,0.00,,---,0.00,VWS V14.01,2013-10-22 00:08:00,
2013-10-21 19:09:00,40.5,28.5,29.95,NNW,338,0.0,0.0,62,0.00,,---,0.00,VWS V14.01,2013-10-22 00:09:00,
2013-10-21 19:10:00,40.5,28.5,29.95,NNW,338,0.0,0.0,62,0.00,,---,0.00,VWS V14.01,2013-10-22 00:10:00,
2013-10-21 19:11:00,40.4,28.4,29.95,NNW,338,0.0,0.0,62,0.00,,---,0.00,VWS V14.01,2013-10-22 00:11:00,
2013-10-21 19:12:00,40.3,28.3,29.95,NNW,338,0.0,0.0,62,0.00,,---,0.00,VWS V14.01,2013-10-22 00:12:00,
2013-10-21 19:13:00,40.3,28.7,29.95,NNW,338,0.0,0.0,63,0.00,,---,0.00,VWS V14.01,2013-10-22 00:13:00,
2013-10-21 19:14:00,40.2,28.6,29.95,NNW,338,0.0,0.0,63,0.00,,---,0.00,VWS V14.01,2013-10-22 00:14:00,
2013-10-21 19:15:00,40.2,28.6,29.96,NNW,338,0.0,0.0,63,0.00,,---,0.00,VWS V14.01,2013-10-22 00:15:00,
2013-10-21 19:16:00,40.1,28.5,29.96,NNW,338,0.0,0.0,63,0.00,,---,0.00,VWS V14.01,2013-10-22 00:16:00,
2013-10-21 19:17:00,40.1,28.9,29.96,NNW,338,0.0,0.0,64,0.00,,---,0.00,VWS V14.01,2013-10-22 00:17:00,
2013-10-21 19:18:00,40.0,28.8,29.96,NNW,338,0.0,0.0,64,0.00,,---,0.00,VWS V14.01,2013-10-22 00:18:00,
2013-10-21 19:19:00,39.9,29.1,29.96,NNW,338,0.0,0.0,65,0.00,,---,0.00,VWS V14.01,2013-10-22 00:19:00,
2013-10-21 19:20:00,39.9,29.1,29.96,NNW,338,0.0,0.0,65,0.00,,---,0.00,VWS V14.01,2013-10-22 00:20:00,
2013-10-21 19:21:00,39.8,29.0,29.96,NNW,338,0.0,0.0,65,0.00,,---,0.00,VWS V14.01,2013-10-22 00:21:00,
2013-10-21 19:22:00,39.8,29.0,29.96,NNW,338,0.0,0.0,65,0.00,,---,0.00,VWS V14.01,2013-10-22 00:22:00,
2013-10-21 19:23:00,39.7,28.5,29.96,NNW,338,0.0,0.0,64,0.00,,---,0.00,VWS V14.01,2013-10-22 00:23:00,
2013-10-21 19:24:00,39.6,28.8,29.96,NNW,338,0.0,0.0,65,0.00,,---,0.00,VWS V14.01,2013-10-22 00:24:00,
2013-10-21 19:25:00,39.6,28.8,29.96,NNW,338,0.0,0.0,65,0.00,,---,0.00,VWS V14.01,2013-10-22 00:25:00,
2013-10-21 19:26:00,39.5,28.7,29.96,NNW,338,0.0,0.0,65,0.00,,---,0.00,VWS V14.01,2013-10-22 00:26:00,
2013-10-21 19:27:00,39.5,29.1,29.96,NNW,338,0.0,0.0,66,0.00,,---,0.00,VWS V14.01,2013-10-22 00:27:00,
2013-10-21 19:28:00,39.4,29.0,29.96,NNW,338,0.0,0.0,66,0.00,,---,0.00,VWS V14.01,2013-10-22 00:28:00,
2013-10-21 19:29:00,39.3,28.9,29.96,NNW,338,0.0,0.0,66,0.00,,---,0.00,VWS V14.01,2013-10-22 00:29:00,
2013-10-21 19:30:00,39.3,28.9,29.96,NNW,338,0.0,0.0,66,0.00,,---,0.00,VWS V14.01,2013-10-22 00:30:00,
2013-10-21 19:31:00,39.2,28.8,29.96,NNW,338,0.0,0.0,66,0.00,,---,0.00,VWS V14.01,2013-10-22 00:31:00,
2013-10-21 19:32:00,39.1,29.1,29.96,NNW,338,0.0,0.0,67,0.00,,---,0.00,VWS V14.01,2013-10-22 00:32:00,
2013-10-21 19:33:00,39.1,29.1,29.96,NNW,338,0.0,0.0,67,0.00,,---,0.00,VWS V14.01,2013-10-22 00:33:00,
2013-10-21 19:34:00,39.0,29.0,29.96,NNW,338,0.0,1.0,67,0.00,,---,0.00,VWS V14.01,2013-10-22 00:34:00,
2013-10-21 19:35:00,38.9,28.5,29.96,NNW,338,0.0,0.0,66,0.00,,---,0.00,VWS V14.01,2013-10-22 00:35:00,
2013-10-21 19:36:00,38.9,28.9,29.96,NNW,338,0.0,0.0,67,0.00,,---,0.00,VWS V14.01,2013-10-22 00:36:00,
2013-10-21 19:37:00,38.8,28.8,29.96,NNW,338,0.0,0.0,67,0.00,,---,0.00,VWS V14.01,2013-10-22 00:37:00,
2013-10-21 19:38:00,38.7,28.3,29.96,NNW,338,0.0,0.0,66,0.00,,---,0.00,VWS V14.01,2013-10-22 00:38:00,
2013-10-21 19:39:00,38.7,28.3,29.96,NNW,338,0.0,0.0,66,0.00,,---,0.00,VWS V14.01,2013-10-22 00:39:00,
2013-10-21 19:40:00,38.6,28.6,29.96,NNW,338,0.0,0.0,67,0.00,,---,0.00,VWS V14.01,2013-10-22 00:40:00,
2013-10-21 19:41:00,38.6,28.6,29.96,NNW,338,0.0,0.0,67,0.00,,---,0.00,VWS V14.01,2013-10-22 00:41:00,
2013-10-21 19:42:00,38.5,28.9,29.96,NNW,338,0.0,0.0,68,0.00,,---,0.00,VWS V14.01,2013-10-22 00:42:00,
2013-10-21 19:43:00,38.4,28.8,29.96,NNW,338,0.0,0.0,68,0.00,,---,0.00,VWS V14.01,2013-10-22 00:43:00,
2013-10-21 19:44:00,38.3,28.3,29.96,NNW,338,0.0,0.0,67,0.00,,---,0.00,VWS V14.01,2013-10-22 00:44:00,
2013-10-21 19:45:00,38.3,28.7,29.96,NNW,338,0.0,0.0,68,0.00,,---,0.00,VWS V14.01,2013-10-22 00:45:00,
2013-10-21 19:46:00,38.2,28.6,29.96,NNW,338,0.0,0.0,68,0.00,,---,0.00,VWS V14.01,2013-10-22 00:46:00,
2013-10-21 19:47:00,38.2,28.9,29.96,NNW,338,0.0,0.0,69,0.00,,---,0.00,VWS V14.01,2013-10-22 00:47:00,
2013-10-21 19:48:00,38.1,28.8,29.96,NNW,338,0.0,0.0,69,0.00,,---,0.00,VWS V14.01,2013-10-22 00:48:00,
2013-10-21 19:49:00,38.0,28.8,29.96,NNW,338,0.0,0.0,69,0.00,,---,0.00,VWS V14.01,2013-10-22 00:49:00,
2013-10-21 19:50:00,38.0,28.8,29.96,NNW,338,0.0,0.0,69,0.00,,---,0.00,VWS V14.01,2013-10-22 00:50:00,
2013-10-21 19:51:00,37.9,28.6,29.96,NNW,338,0.0,0.0,69,0.00,,---,0.00,VWS V14.01,2013-10-22 00:51:00,
2013-10-21 19:52:00,37.9,29.0,29.96,NNW,338,0.0,0.0,70,0.00,,---,0.00,VWS V14.01,2013-10-22 00:52:00,
2013-10-21 19:53:00,37.8,28.9,29.96,NNW,338,0.0,0.0,70,0.00,,---,0.00,VWS V14.01,2013-10-22 00:53:00,
2013-10-21 19:54:00,37.8,28.9,29.96,NNW,338,0.0,0.0,70,0.00,,---,0.00,VWS V14.01,2013-10-22 00:54:00,
2013-10-21 19:55:00,37.7,28.8,29.96,NNW,338,0.0,0.0,70,0.00,,---,0.00,VWS V14.01,2013-10-22 00:55:00,
2013-10-21 19:56:00,37.6,28.4,29.96,NNW,338,0.0,0.0,69,0.00,,---,0.00,VWS V14.01,2013-10-22 00:56:00,
2013-10-21 19:57:00,37.6,28.4,29.96,NNW,338,0.0,0.0,69,0.00,,---,0.00,VWS V14.01,2013-10-22 00:57:00,
2013-10-21 19:58:00,37.5,28.6,29.96,NNW,338,0.0,0.0,70,0.00,,---,0.00,VWS V14.01,2013-10-22 00:58:00,
2013-10-21 19:59:00,37.5,28.6,29.96,NNW,338,0.0,0.0,70,0.00,,---,0.00,VWS V14.01,2013-10-22 00:59:00,
2013-10-21 20:00:00,37.4,28.9,29.96,NNW,338,0.0,0.0,71,0.00,,---,0.00,VWS V14.01,2013-10-22 01:00:00,
2013-10-21 20:01:00,37.4,28.5,29.96,NNW,338,0.0,0.0,70,0.00,,---,0.00,VWS V14.01,2013-10-22 01:01:00,
2013-10-21 20:02:00,37.3,28.4,29.96,NNW,338,0.0,0.0,70,0.00,,---,0.00,VWS V14.01,2013-10-22 01:02:00,
2013-10-21 20:03:00,37.3,28.4,29.96,NNW,338,0.0,0.0,70,0.00,,---,0.00,VWS V14.01,2013-10-22 01:03:00,
2013-10-21 20:04:00,37.3,28.4,29.96,NNW,338,0.0,0.0,70,0.00,,---,0.00,VWS V14.01,2013-10-22 01:04:00,
2013-10-21 20:05:00,37.2,28.3,29.96,NNW,338,0.0,0.0,70,0.00,,---,0.00,VWS V14.01,2013-10-22 01:05:00,
2013-10-21 20:06:00,37.1,28.2,29.96,NNW,338,0.0,0.0,70,0.00,,---,0.00,VWS V14.01,2013-10-22 01:06:00,
2013-10-21 20:07:00,37.1,28.2,29.96,NNW,338,0.0,0.0,70,0.00,,---,0.00,VWS V14.01,2013-10-22 01:07:00,
2013-10-21 20:08:00,37.0,28.5,29.96,NNW,338,0.0,0.0,71,0.00,,---,0.00,VWS V14.01,2013-10-22 01:08:00,
2013-10-21 20:09:00,37.0,28.5,29.96,NNW,338,0.0,0.0,71,0.00,,---,0.00,VWS V14.01,2013-10-22 01:09:00,
2013-10-21 20:10:00,36.9,28.4,29.96,NNW,338,0.0,0.0,71,0.00,,---,0.00,VWS V14.01,2013-10-22 01:10:00,
2013-10-21 20:11:00,36.8,28.3,29.96,NNW,338,0.0,0.0,71,0.00,,---,0.00,VWS V14.01,2013-10-22 01:11:00,
2013-10-21 20:12:00,36.8,28.3,29.96,NNW,338,0.0,0.0,71,0.00,,---,0.00,VWS V14.01,2013-10-22 01:12:00,
2013-10-21 20:13:00,36.8,28.6,29.96,NNW,338,0.0,0.0,72,0.00,,---,0.00,VWS V14.01,2013-10-22 01:13:00,
2013-10-21 20:14:00,36.7,28.5,29.96,NNW,338,0.0,0.0,72,0.00,,---,0.00,VWS V14.01,2013-10-22 01:14:00,
2013-10-21 20:15:00,36.7,28.5,29.96,NNW,338,0.0,0.0,72,0.00,,---,0.00,VWS V14.01,2013-10-22 01:15:00,
2013-10-21 20:16:00,36.6,28.4,29.96,NNW,338,0.0,0.0,72,0.00,,---,0.00,VWS V14.01,2013-10-22 01:16:00,
2013-10-21 20:17:00,36.6,28.8,29.96,NNW,338,0.0,0.0,73,0.00,,---,0.00,VWS V14.01,2013-10-22 01:17:00,
2013-10-21 20:18:00,36.5,28.7,29.96,NNW,338,0.0,0.0,73,0.00,,---,0.00,VWS V14.01,2013-10-22 01:18:00,
2013-10-21 20:19:00,36.5,29.0,29.96,NNW,338,0.0,0.0,74,0.00,,---,0.00,VWS V14.01,2013-10-22 01:19:00,
2013-10-21 20:20:00,36.4,28.9,29.96,NNW,338,0.0,0.0,74,0.00,,---,0.00,VWS V14.01,2013-10-22 01:20:00,
2013-10-21 20:21:00,36.4,28.9,29.96,NNW,338,0.0,0.0,74,0.00,,---,0.00,VWS V14.01,2013-10-22 01:21:00,
2013-10-21 20:22:00,36.4,28.9,29.96,NNW,338,0.0,0.0,74,0.00,,---,0.00,VWS V14.01,2013-10-22 01:22:00,
2013-10-21 20:23:00,36.3,28.8,29.96,NNW,338,0.0,0.0,74,0.00,,---,0.00,VWS V14.01,2013-10-22 01:23:00,
2013-10-21 20:24:00,36.3,28.5,29.96,NNW,338,0.0,0.0,73,0.00,,---,0.00,VWS V14.01,2013-10-22 01:24:00,
2013-10-21 20:25:00,36.2,28.4,29.96,NNW,338,0.0,0.0,73,0.00,,---,0.00,VWS V14.01,2013-10-22 01:25:00,
2013-10-21 20:26:00,36.2,28.4,29.96,NNW,338,0.0,0.0,73,0.00,,---,0.00,VWS V14.01,2013-10-22 01:26:00,
2013-10-21 20:27:00,36.2,28.7,29.96,NNW,338,0.0,0.0,74,0.00,,---,0.00,VWS V14.01,2013-10-22 01:27:00,
2013-10-21 20:28:00,36.1,28.6,29.96,NNW,338,0.0,0.0,74,0.00,,---,0.00,VWS V14.01,2013-10-22 01:28:00,
2013-10-21 20:29:00,36.1,28.6,29.96,NNW,338,0.0,0.0,74,0.00,,---,0.00,VWS V14.01,2013-10-22 01:29:00,
2013-10-21 20:30:00,36.1,28.6,29.96,NNW,338,0.0,0.0,74,0.00,,---,0.00,VWS V14.01,2013-10-22 01:30:00,
2013-10-21 20:31:00,36.0,28.5,29.96,NNW,338,0.0,0.0,74,0.00,,---,0.00,VWS V14.01,2013-10-22 01:31:00,
2013-10-21 20:32:00,36.0,28.9,29.96,NNW,338,0.0,0.0,75,0.00,,---,0.00,VWS V14.01,2013-10-22 01:32:00,
2013-10-21 20:33:00,36.0,28.5,29.96,NNW,338,0.0,0.0,74,0.00,,---,0.00,VWS V14.01,2013-10-22 01:33:00,
2013-10-21 20:34:00,35.9,28.4,29.96,NNW,338,0.0,0.0,74,0.00,,---,0.00,VWS V14.01,2013-10-22 01:34:00,
2013-10-21 20:35:00,35.9,28.4,29.96,NNW,338,0.0,0.0,74,0.00,,---,0.00,VWS V14.01,2013-10-22 01:35:00,
2013-10-21 20:36:00,35.9,28.8,29.96,NNW,338,0.0,0.0,75,0.00,,---,0.00,VWS V14.01,2013-10-22 01:36:00,
2013-10-21 20:37:00,35.9,28.8,29.96,NNW,338,0.0,0.0,75,0.00,,---,0.00,VWS V14.01,2013-10-22 01:37:00,
2013-10-21 20:38:00,35.8,28.7,29.96,NNW,338,0.0,0.0,75,0.00,,---,0.00,VWS V14.01,2013-10-22 01:38:00,
2013-10-21 20:39:00,35.8,29.0,29.96,NNW,338,0.0,0.0,76,0.00,,---,0.00,VWS V14.01,2013-10-22 01:39:00,
2013-10-21 20:40:00,35.8,29.0,29.96,NNW,338,0.0,0.0,76,0.00,,---,0.00,VWS V14.01,2013-10-22 01:40:00,
2013-10-21 20:41:00,35.7,28.9,29.96,NNW,338,0.0,0.0,76,0.00,,---,0.00,VWS V14.01,2013-10-22 01:41:00,
2013-10-21 20:42:00,35.7,28.9,29.96,NNW,338,0.0,0.0,76,0.00,,---,0.00,VWS V14.01,2013-10-22 01:42:00,
2013-10-21 20:43:00,35.7,28.9,29.96,NNW,338,0.0,0.0,76,0.00,,---,0.00,VWS V14.01,2013-10-22 01:43:00,
2013-10-21 20:44:00,35.6,28.8,29.96,NNW,338,0.0,0.0,76,0.00,,---,0.00,VWS V14.01,2013-10-22 01:44:00,
2013-10-21 20:45:00,35.6,28.8,29.96,NNW,338,0.0,0.0,76,0.00,,---,0.00,VWS V14.01,2013-10-22 01:45:00,
2013-10-21 20:46:00,35.6,28.8,29.96,NNW,338,0.0,0.0,76,0.00,,---,0.00,VWS V14.01,2013-10-22 01:46:00,
2013-10-21 20:47:00,35.6,29.1,29.96,NNW,338,0.0,0.0,77,0.00,,---,0.00,VWS V14.01,2013-10-22 01:47:00,
2013-10-21 20:48:00,35.5,29.0,29.96,NNW,338,0.0,0.0,77,0.00,,---,0.00,VWS V14.01,2013-10-22 01:48:00,
2013-10-21 20:49:00,35.5,29.0,29.96,NNW,338,0.0,0.0,77,0.00,,---,0.00,VWS V14.01,2013-10-22 01:49:00,
2013-10-21 20:50:00,35.5,29.0,29.96,NNW,338,0.0,0.0,77,0.00,,---,0.00,VWS V14.01,2013-10-22 01:50:00,
2013-10-21 20:51:00,35.4,28.9,29.96,NNW,338,0.0,0.0,77,0.00,,---,0.00,VWS V14.01,2013-10-22 01:51:00,
2013-10-21 20:52:00,35.4,28.9,29.96,NNW,338,0.0,0.0,77,0.00,,---,0.00,VWS V14.01,2013-10-22 01:52:00,
2013-10-21 20:53:00,35.3,28.8,29.96,NNW,338,0.0,0.0,77,0.00,,---,0.00,VWS V14.01,2013-10-22 01:53:00,
2013-10-21 20:54:00,35.3,28.8,29.96,NNW,338,0.0,0.0,77,0.00,,---,0.00,VWS V14.01,2013-10-22 01:54:00,
2013-10-21 20:55:00,35.3,28.8,29.96,NNW,338,0.0,0.0,77,0.00,,---,0.00,VWS V14.01,2013-10-22 01:55:00,
2013-10-21 20:56:00,35.3,28.8,29.96,NNW,338,0.0,0.0,77,0.00,,---,0.00,VWS V14.01,2013-10-22 01:56:00,
2013-10-21 20:57:00,35.2,28.7,29.96,NNW,338,0.0,0.0,77,0.00,,---,0.00,VWS V14.01,2013-10-22 01:57:00,
2013-10-21 20:58:00,35.2,28.7,29.96,NNW,338,0.0,0.0,77,0.00,,---,0.00,VWS V14.01,2013-10-22 01:58:00,
2013-10-21 20:59:00,35.1,28.6,29.96,NNW,338,0.0,0.0,77,0.00,,---,0.00,VWS V14.01,2013-10-22 01:59:00,
2013-10-21 21:00:00,35.1,28.6,29.97,NNW,338,0.0,0.0,77,0.00,,---,0.00,VWS V14.01,2013-10-22 02:00:00,
2013-10-21 21:01:00,35.1,28.6,29.97,NNW,338,0.0,0.0,77,0.00,,---,0.00,VWS V14.01,2013-10-22 02:01:00,
2013-10-21 21:02:00,35.0,28.5,29.97,NNW,338,0.0,0.0,77,0.00,,---,0.00,VWS V14.01,2013-10-22 02:02:00,
2013-10-21 21:03:00,35.0,28.5,29.97,NNW,338,0.0,0.0,77,0.00,,---,0.00,VWS V14.01,2013-10-22 02:03:00,
2013-10-21 21:04:00,35.0,28.5,29.97,NNW,338,0.0,0.0,77,0.00,,---,0.00,VWS V14.01,2013-10-22 02:04:00,
2013-10-21 21:05:00,34.9,28.4,29.97,NNW,338,0.0,0.0,77,0.00,,---,0.00,VWS V14.01,2013-10-22 02:05:00,
2013-10-21 21:06:00,34.9,28.4,29.97,NNW,338,0.0,0.0,77,0.00,,---,0.00,VWS V14.01,2013-10-22 02:06:00,
2013-10-21 21:07:00,34.9,28.4,29.97,NNW,338,0.0,0.0,77,0.00,,---,0.00,VWS V14.01,2013-10-22 02:07:00,
2013-10-21 21:08:00,34.9,28.4,29.97,NNW,338,0.0,0.0,77,0.00,,---,0.00,VWS V14.01,2013-10-22 02:08:00,
2013-10-21 21:09:00,34.8,28.6,29.97,NNW,338,0.0,0.0,78,0.00,,---,0.00,VWS V14.01,2013-10-22 02:09:00,
2013-10-21 21:10:00,34.8,28.6,29.97,NNW,338,0.0,0.0,78,0.00,,---,0.00,VWS V14.01,2013-10-22 02:10:00,
2013-10-21 21:11:00,34.8,28.6,29.97,NNW,338,0.0,0.0,78,0.00,,---,0.00,VWS V14.01,2013-10-22 02:11:00,
2013-10-21 21:12:00,34.8,28.6,29.97,NNW,338,0.0,0.0,78,0.00,,---,0.00,VWS V14.01,2013-10-22 02:12:00,
2013-10-21 21:13:00,34.8,28.6,29.97,NNW,338,0.0,0.0,78,0.00,,---,0.00,VWS V14.01,2013-10-22 02:13:00,
2013-10-21 21:14:00,34.8,29.0,29.97,NNW,338,0.0,0.0,79,0.00,,---,0.00,VWS V14.01,2013-10-22 02:14:00,
2013-10-21 21:15:00,34.7,28.5,29.97,NNW,338,0.0,0.0,78,0.00,,---,0.00,VWS V14.01,2013-10-22 02:15:00,
2013-10-21 21:16:00,34.7,28.9,29.97,NNW,338,0.0,0.0,79,0.00,,---,0.00,VWS V14.01,2013-10-22 02:16:00,
2013-10-21 21:17:00,34.7,28.9,29.97,NNW,338,0.0,0.0,79,0.00,,---,0.00,VWS V14.01,2013-10-22 02:17:00,
2013-10-21 21:18:00,34.6,28.8,29.97,NNW,338,0.0,0.0,79,0.00,,---,0.00,VWS V14.01,2013-10-22 02:18:00,
2013-10-21 21:19:00,34.6,28.8,29.97,NNW,338,0.0,0.0,79,0.00,,---,0.00,VWS V14.01,2013-10-22 02:19:00,
2013-10-21 21:20:00,34.6,28.8,29.97,NNW,338,0.0,0.0,79,0.00,,---,0.00,VWS V14.01,2013-10-22 02:20:00,
2013-10-21 21:21:00,34.5,28.7,29.97,NNW,338,0.0,0.0,79,0.00,,---,0.00,VWS V14.01,2013-10-22 02:21:00,
2013-10-21 21:22:00,34.4,28.9,29.97,NNW,338,0.0,0.0,80,0.00,,---,0.00,VWS V14.01,2013-10-22 02:22:00,
2013-10-21 21:23:00,34.4,28.9,29.97,NNW,338,0.0,0.0,80,0.00,,---,0.00,VWS V14.01,2013-10-22 02:23:00,
2013-10-21 21:24:00,34.3,28.8,29.97,NNW,338,0.0,0.0,80,0.00,,---,0.00,VWS V14.01,2013-10-22 02:24:00,
2013-10-21 21:25:00,34.3,28.8,29.97,NNW,338,0.0,0.0,80,0.00,,---,0.00,VWS V14.01,2013-10-22 02:25:00,
2013-10-21 21:26:00,34.3,29.1,29.97,NNW,338,0.0,0.0,81,0.00,,---,0.00,VWS V14.01,2013-10-22 02:26:00,
2013-10-21 21:27:00,34.3,29.1,29.97,NNW,338,0.0,0.0,81,0.00,,---,0.00,VWS V14.01,2013-10-22 02:27:00,
2013-10-21 21:28:00,34.2,29.0,29.97,NNW,338,0.0,0.0,81,0.00,,---,0.00,VWS V14.01,2013-10-22 02:28:00,
2013-10-21 21:29:00,34.2,29.0,29.97,NNW,338,0.0,0.0,81,0.00,,---,0.00,VWS V14.01,2013-10-22 02:29:00,
2013-10-21 21:30:00,34.2,29.0,29.98,NNW,338,0.0,0.0,81,0.00,,---,0.00,VWS V14.01,2013-10-22 02:30:00,
2013-10-21 21:31:00,34.1,28.9,29.98,NNW,338,0.0,0.0,81,0.00,,---,0.00,VWS V14.01,2013-10-22 02:31:00,
2013-10-21 21:32:00,34.1,28.9,29.98,NNW,338,0.0,0.0,81,0.00,,---,0.00,VWS V14.01,2013-10-22 02:32:00,
2013-10-21 21:33:00,34.1,28.9,29.98,NNW,338,0.0,0.0,81,0.00,,---,0.00,VWS V14.01,2013-10-22 02:33:00,
2013-10-21 21:34:00,34.0,29.1,29.98,NNW,338,0.0,0.0,82,0.00,,---,0.00,VWS V14.01,2013-10-22 02:34:00,
2013-10-21 21:35:00,34.0,29.1,29.98,NNW,338,0.0,0.0,82,0.00,,---,0.00,VWS V14.01,2013-10-22 02:35:00,
2013-10-21 21:36:00,33.9,29.0,29.98,NNW,338,0.0,0.0,82,0.00,,---,0.00,VWS V14.01,2013-10-22 02:36:00,
2013-10-21 21:37:00,33.9,29.0,29.98,NNW,338,0.0,0.0,82,0.00,,---,0.00,VWS V14.01,2013-10-22 02:37:00,
2013-10-21 21:38:00,33.9,29.0,29.98,NNW,338,0.0,0.0,82,0.00,,---,0.00,VWS V14.01,2013-10-22 02:38:00,
2013-10-21 21:39:00,33.9,29.0,29.98,NNW,338,0.0,0.0,82,0.00,,---,0.00,VWS V14.01,2013-10-22 02:39:00,
2013-10-21 21:40:00,33.8,28.9,29.98,NNW,338,0.0,0.0,82,0.00,,---,0.00,VWS V14.01,2013-10-22 02:40:00,
2013-10-21 21:41:00,33.8,28.9,29.98,NNW,338,0.0,0.0,82,0.00,,---,0.00,VWS V14.01,2013-10-22 02:41:00,
2013-10-21 21:42:00,33.8,28.9,29.98,NNW,338,0.0,0.0,82,0.00,,---,0.00,VWS V14.01,2013-10-22 02:42:00,
2013-10-21 21:43:00,33.8,28.9,29.98,NNW,338,0.0,0.0,82,0.00,,---,0.00,VWS V14.01,2013-10-22 02:43:00,
2013-10-21 21:44:00,33.7,28.8,29.98,NNW,338,0.0,0.0,82,0.00,,---,0.00,VWS V14.01,2013-10-22 02:44:00,
2013-10-21 21:45:00,33.7,28.8,29.98,NNW,338,0.0,0.0,82,0.00,,---,0.00,VWS V14.01,2013-10-22 02:45:00,
2013-10-21 21:46:00,33.7,28.8,29.98,NNW,338,0.0,0.0,82,0.00,,---,0.00,VWS V14.01,2013-10-22 02:46:00,
2013-10-21 21:47:00,33.6,28.7,29.98,NNW,338,0.0,0.0,82,0.00,,---,0.00,VWS V14.01,2013-10-22 02:47:00,
2013-10-21 21:48:00,33.6,28.7,29.98,NNW,338,0.0,0.0,82,0.00,,---,0.00,VWS V14.01,2013-10-22 02:48:00,
2013-10-21 21:49:00,33.5,28.6,29.98,NNW,338,0.0,0.0,82,0.00,,---,0.00,VWS V14.01,2013-10-22 02:49:00,
2013-10-21 21:50:00,33.5,28.6,29.98,NNW,338,0.0,0.0,82,0.00,,---,0.00,VWS V14.01,2013-10-22 02:50:00,
2013-10-21 21:51:00,33.5,28.6,29.98,NNW,338,0.0,0.0,82,0.00,,---,0.00,VWS V14.01,2013-10-22 02:51:00,
2013-10-21 21:52:00,33.4,28.5,29.98,NNW,338,0.0,0.0,82,0.00,,---,0.00,VWS V14.01,2013-10-22 02:52:00,
2013-10-21 21:53:00,33.4,28.5,29.98,NNW,338,0.0,0.0,82,0.00,,---,0.00,VWS V14.01,2013-10-22 02:53:00,
2013-10-21 21:54:00,33.4,28.5,29.98,NNW,338,0.0,0.0,82,0.00,,---,0.00,VWS V14.01,2013-10-22 02:54:00,
2013-10-21 21:55:00,33.4,28.8,29.98,NNW,338,0.0,0.0,83,0.00,,---,0.00,VWS V14.01,2013-10-22 02:55:00,
2013-10-21 21:56:00,33.3,28.7,29.98,NNW,338,0.0,0.0,83,0.00,,---,0.00,VWS V14.01,2013-10-22 02:56:00,
2013-10-21 21:57:00,33.3,28.7,29.98,NNW,338,0.0,0.0,83,0.00,,---,0.00,VWS V14.01,2013-10-22 02:57:00,
2013-10-21 21:58:00,33.3,28.4,29.98,NNW,338,0.0,0.0,82,0.00,,---,0.00,VWS V14.01,2013-10-22 02:58:00,
2013-10-21 21:59:00,33.3,28.4,29.98,NNW,338,0.0,0.0,82,0.00,,---,0.00,VWS V14.01,2013-10-22 02:59:00,
2013-10-21 22:00:00,33.2,28.6,29.98,NNW,338,0.0,0.0,83,0.00,,---,0.00,VWS V14.01,2013-10-22 03:00:00,
2013-10-21 22:01:00,33.2,28.6,29.98,NNW,338,0.0,0.0,83,0.00,,---,0.00,VWS V14.01,2013-10-22 03:01:00,
2013-10-21 22:02:00,33.2,28.6,29.98,NNW,338,0.0,0.0,83,0.00,,---,0.00,VWS V14.01,2013-10-22 03:02:00,
2013-10-21 22:03:00,33.2,28.6,29.98,NNW,338,0.0,0.0,83,0.00,,---,0.00,VWS V14.01,2013-10-22 03:03:00,
2013-10-21 22:04:00,33.1,28.5,29.98,NNW,338,0.0,0.0,83,0.00,,---,0.00,VWS V14.01,2013-10-22 03:04:00,
2013-10-21 22:05:00,33.1,28.5,29.98,NNW,338,0.0,0.0,83,0.00,,---,0.00,VWS V14.01,2013-10-22 03:05:00,
2013-10-21 22:06:00,33.1,28.5,29.98,NNW,338,0.0,0.0,83,0.00,,---,0.00,VWS V14.01,2013-10-22 03:06:00,
2013-10-21 22:07:00,33.1,28.5,29.98,NNW,338,0.0,0.0,83,0.00,,---,0.00,VWS V14.01,2013-10-22 03:07:00,
2013-10-21 22:08:00,33.0,28.4,29.98,NNW,338,0.0,0.0,83,0.00,,---,0.00,VWS V14.01,2013-10-22 03:08:00,
2013-10-21 22:09:00,33.0,28.4,29.98,NNW,338,0.0,0.0,83,0.00,,---,0.00,VWS V14.01,2013-10-22 03:09:00,
2013-10-21 22:10:00,33.0,28.4,29.98,NNW,338,0.0,0.0,83,0.00,,---,0.00,VWS V14.01,2013-10-22 03:10:00,
2013-10-21 22:11:00,33.0,28.4,29.98,NNW,338,0.0,0.0,83,0.00,,---,0.00,VWS V14.01,2013-10-22 03:11:00,
2013-10-21 22:12:00,32.9,28.3,29.98,NNW,338,0.0,0.0,83,0.00,,---,0.00,VWS V14.01,2013-10-22 03:12:00,
2013-10-21 22:13:00,32.9,28.3,29.98,NNW,338,0.0,0.0,83,0.00,,---,0.00,VWS V14.01,2013-10-22 03:13:00,
2013-10-21 22:14:00,32.9,28.3,29.98,NNW,338,0.0,0.0,83,0.00,,---,0.00,VWS V14.01,2013-10-22 03:14:00,
2013-10-21 22:15:00,32.9,28.3,29.97,NNW,338,0.0,0.0,83,0.00,,---,0.00,VWS V14.01,2013-10-22 03:15:00,
2013-10-21 22:16:00,32.8,28.2,29.97,NNW,338,0.0,0.0,83,0.00,,---,0.00,VWS V14.01,2013-10-22 03:16:00,
2013-10-21 22:17:00,32.8,28.2,29.97,NNW,338,0.0,0.0,83,0.00,,---,0.00,VWS V14.01,2013-10-22 03:17:00,
2013-10-21 22:18:00,32.8,28.2,29.97,NNW,338,0.0,0.0,83,0.00,,---,0.00,VWS V14.01,2013-10-22 03:18:00,
2013-10-21 22:19:00,32.8,28.2,29.97,NNW,338,0.0,0.0,83,0.00,,---,0.00,VWS V14.01,2013-10-22 03:19:00,
2013-10-21 22:20:00,32.7,28.4,29.97,NNW,338,0.0,0.0,84,0.00,,---,0.00,VWS V14.01,2013-10-22 03:20:00,
2013-10-21 22:21:00,32.7,28.4,29.97,NNW,338,0.0,0.0,84,0.00,,---,0.00,VWS V14.01,2013-10-22 03:21:00,
2013-10-21 22:22:00,32.7,28.4,29.97,NNW,338,0.0,0.0,84,0.00,,---,0.00,VWS V14.01,2013-10-22 03:22:00,
2013-10-21 22:24:00,32.6,28.3,29.97,NNW,338,0.0,0.0,84,0.00,,---,0.00,VWS V14.01,2013-10-22 03:24:00,
2013-10-21 22:26:00,32.6,28.3,29.97,NNW,338,0.0,0.0,84,0.00,,---,0.00,VWS V14.01,2013-10-22 03:26:00,
2013-10-21 22:27:00,32.5,28.2,29.97,NNW,338,0.0,0.0,84,0.00,,---,0.00,VWS V14.01,2013-10-22 03:27:00,
2013-10-21 22:28:00,32.5,28.2,29.97,NNW,338,0.0,0.0,84,0.00,,---,0.00,VWS V14.01,2013-10-22 03:28:00,
2013-10-21 22:29:00,32.5,28.5,29.97,NNW,338,0.0,0.0,85,0.00,,---,0.00,VWS V14.01,2013-10-22 03:29:00,
2013-10-21 22:30:00,32.5,28.5,29.97,NNW,338,0.0,0.0,85,0.00,,---,0.00,VWS V14.01,2013-10-22 03:30:00,
2013-10-21 22:31:00,32.4,28.4,29.97,NNW,338,0.0,0.0,85,0.00,,---,0.00,VWS V14.01,2013-10-22 03:31:00,
2013-10-21 22:32:00,32.4,28.4,29.97,NNW,338,0.0,0.0,85,0.00,,---,0.00,VWS V14.01,2013-10-22 03:32:00,
2013-10-21 22:33:00,32.4,28.4,29.97,NNW,338,0.0,0.0,85,0.00,,---,0.00,VWS V14.01,2013-10-22 03:33:00,
2013-10-21 22:34:00,32.3,28.3,29.97,NNW,338,0.0,0.0,85,0.00,,---,0.00,VWS V14.01,2013-10-22 03:34:00,
2013-10-21 22:35:00,32.3,28.3,29.97,NNW,338,0.0,0.0,85,0.00,,---,0.00,VWS V14.01,2013-10-22 03:35:00,
2013-10-21 22:36:00,32.3,28.3,29.97,NNW,338,0.0,0.0,85,0.00,,---,0.00,VWS V14.01,2013-10-22 03:36:00,
2013-10-21 22:37:00,32.3,28.3,29.97,NNW,338,0.0,0.0,85,0.00,,---,0.00,VWS V14.01,2013-10-22 03:37:00,
2013-10-21 22:38:00,32.3,28.3,29.97,NNW,338,0.0,0.0,85,0.00,,---,0.00,VWS V14.01,2013-10-22 03:38:00,
2013-10-21 22:39:00,32.2,28.2,29.97,NNW,338,0.0,0.0,85,0.00,,---,0.00,VWS V14.01,2013-10-22 03:39:00,
2013-10-21 22:40:00,32.2,28.2,29.97,NNW,338,0.0,0.0,85,0.00,,---,0.00,VWS V14.01,2013-10-22 03:40:00,
2013-10-21 22:41:00,32.2,28.2,29.97,NNW,338,0.0,0.0,85,0.00,,---,0.00,VWS V14.01,2013-10-22 03:41:00,
2013-10-21 22:42:00,32.2,28.2,29.97,NNW,338,0.0,0.0,85,0.00,,---,0.00,VWS V14.01,2013-10-22 03:42:00,
2013-10-21 22:43:00,32.2,28.2,29.97,NNW,338,0.0,0.0,85,0.00,,---,0.00,VWS V14.01,2013-10-22 03:43:00,
2013-10-21 22:44:00,32.2,28.2,29.97,NNW,338,0.0,0.0,85,0.00,,---,0.00,VWS V14.01,2013-10-22 03:44:00,
2013-10-21 22:45:00,32.1,28.1,29.98,NNW,338,0.0,0.0,85,0.00,,---,0.00,VWS V14.01,2013-10-22 03:45:00,
2013-10-21 22:46:00,32.1,28.1,29.98,NNW,338,0.0,0.0,85,0.00,,---,0.00,VWS V14.01,2013-10-22 03:46:00,
2013-10-21 22:47:00,32.1,28.1,29.98,NNW,338,0.0,0.0,85,0.00,,---,0.00,VWS V14.01,2013-10-22 03:47:00,
2013-10-21 22:48:00,32.1,28.1,29.98,NNW,338,0.0,0.0,85,0.00,,---,0.00,VWS V14.01,2013-10-22 03:48:00,
2013-10-21 22:49:00,32.1,28.1,29.98,NNW,338,0.0,0.0,85,0.00,,---,0.00,VWS V14.01,2013-10-22 03:49:00,
2013-10-21 22:50:00,32.1,28.1,29.98,NNW,338,0.0,0.0,85,0.00,,---,0.00,VWS V14.01,2013-10-22 03:50:00,
2013-10-21 22:51:00,32.1,28.1,29.98,NNW,338,0.0,0.0,85,0.00,,---,0.00,VWS V14.01,2013-10-22 03:51:00,
2013-10-21 22:52:00,32.1,28.1,29.98,NNW,338,0.0,0.0,85,0.00,,---,0.00,VWS V14.01,2013-10-22 03:52:00,
2013-10-21 22:53:00,32.1,28.1,29.98,NNW,338,0.0,0.0,85,0.00,,---,0.00,VWS V14.01,2013-10-22 03:53:00,
2013-10-21 22:54:00,32.1,28.1,29.98,NNW,338,0.0,0.0,85,0.00,,---,0.00,VWS V14.01,2013-10-22 03:54:00,
2013-10-21 22:55:00,32.1,28.4,29.98,NNW,338,0.0,0.0,86,0.00,,---,0.00,VWS V14.01,2013-10-22 03:55:00,
2013-10-21 22:56:00,32.1,28.4,29.98,NNW,338,0.0,0.0,86,0.00,,---,0.00,VWS V14.01,2013-10-22 03:56:00,
2013-10-21 22:57:00,32.1,28.4,29.98,NNW,338,0.0,0.0,86,0.00,,---,0.00,VWS V14.01,2013-10-22 03:57:00,
2013-10-21 22:58:00,32.2,28.5,29.98,NNW,338,0.0,0.0,86,0.00,,---,0.00,VWS V14.01,2013-10-22 03:58:00,
2013-10-21 22:59:00,32.2,28.5,29.98,NNW,338,0.0,0.0,86,0.00,,---,0.00,VWS V14.01,2013-10-22 03:59:00,
2013-10-21 23:00:00,32.2,28.5,29.98,NNW,338,0.0,0.0,86,0.00,,---,0.00,VWS V14.01,2013-10-22 04:00:00,
2013-10-21 23:01:00,32.3,28.6,29.98,NNW,338,0.0,0.0,86,0.00,,---,0.00,VWS V14.01,2013-10-22 04:01:00,
2013-10-21 23:02:00,32.3,28.6,29.98,NNW,338,0.0,0.0,86,0.00,,---,0.00,VWS V14.01,2013-10-22 04:02:00,
2013-10-21 23:03:00,32.4,28.4,29.98,NNW,338,0.0,0.0,85,0.00,,---,0.00,VWS V14.01,2013-10-22 04:03:00,
2013-10-21 23:04:00,32.4,28.4,29.98,NNW,338,0.0,0.0,85,0.00,,---,0.00,VWS V14.01,2013-10-22 04:04:00,
2013-10-21 23:05:00,32.4,28.4,29.98,NNW,338,0.0,0.0,85,0.00,,---,0.00,VWS V14.01,2013-10-22 04:05:00,
2013-10-21 23:06:00,32.4,28.4,29.98,NNW,338,0.0,0.0,85,0.00,,---,0.00,VWS V14.01,2013-10-22 04:06:00,
2013-10-21 23:07:00,32.4,28.4,29.98,NNW,338,0.0,0.0,85,0.00,,---,0.00,VWS V14.01,2013-10-22 04:07:00,
2013-10-21 23:08:00,32.4,28.4,29.98,NNW,338,0.0,0.0,85,0.00,,---,0.00,VWS V14.01,2013-10-22 04:08:00,
2013-10-21 23:09:00,32.4,28.1,29.98,NNW,338,0.0,0.0,84,0.00,,---,0.00,VWS V14.01,2013-10-22 04:09:00,
2013-10-21 23:10:00,32.4,28.4,29.98,NNW,338,0.0,0.0,85,0.00,,---,0.00,VWS V14.01,2013-10-22 04:10:00,
2013-10-21 23:11:00,32.4,28.4,29.98,NNW,338,0.0,0.0,85,0.00,,---,0.00,VWS V14.01,2013-10-22 04:11:00,
2013-10-21 23:12:00,32.5,28.5,29.98,NNW,338,0.0,0.0,85,0.00,,---,0.00,VWS V14.01,2013-10-22 04:12:00,
2013-10-21 23:13:00,32.4,28.4,29.98,NNW,338,0.0,0.0,85,0.00,,---,0.00,VWS V14.01,2013-10-22 04:13:00,
2013-10-21 23:14:00,32.5,28.5,29.98,NNW,338,0.0,0.0,85,0.00,,---,0.00,VWS V14.01,2013-10-22 04:14:00,
2013-10-21 23:15:00,32.5,28.5,29.97,NNW,338,0.0,0.0,85,0.00,,---,0.00,VWS V14.01,2013-10-22 04:15:00,
2013-10-21 23:16:00,32.5,28.5,29.97,NNW,338,0.0,0.0,85,0.00,,---,0.00,VWS V14.01,2013-10-22 04:16:00,
2013-10-21 23:17:00,32.4,28.4,29.97,NNW,338,0.0,0.0,85,0.00,,---,0.00,VWS V14.01,2013-10-22 04:17:00,
2013-10-21 23:18:00,32.5,28.5,29.97,NNW,338,0.0,0.0,85,0.00,,---,0.00,VWS V14.01,2013-10-22 04:18:00,
2013-10-21 23:19:00,32.5,28.5,29.97,NNW,338,0.0,0.0,85,0.00,,---,0.00,VWS V14.01,2013-10-22 04:19:00,
2013-10-21 23:20:00,32.5,28.5,29.97,NNW,338,0.0,0.0,85,0.00,,---,0.00,VWS V14.01,2013-10-22 04:20:00,
2013-10-21 23:21:00,32.4,28.4,29.97,NNW,338,0.0,0.0,85,0.00,,---,0.00,VWS V14.01,2013-10-22 04:21:00,
2013-10-21 23:22:00,32.4,28.4,29.97,NNW,338,0.0,0.0,85,0.00,,---,0.00,VWS V14.01,2013-10-22 04:22:00,
2013-10-21 23:23:00,32.4,28.4,29.97,NNW,338,0.0,0.0,85,0.00,,---,0.00,VWS V14.01,2013-10-22 04:23:00,
2013-10-21 23:24:00,32.4,28.4,29.97,NNW,338,0.0,0.0,85,0.00,,---,0.00,VWS V14.01,2013-10-22 04:24:00,
2013-10-21 23:25:00,32.4,28.4,29.97,NNW,338,0.0,0.0,85,0.00,,---,0.00,VWS V14.01,2013-10-22 04:25:00,
2013-10-21 23:26:00,32.4,28.4,29.97,NNW,338,0.0,0.0,85,0.00,,---,0.00,VWS V14.01,2013-10-22 04:26:00,
2013-10-21 23:27:00,32.4,28.4,29.97,NNW,338,0.0,0.0,85,0.00,,---,0.00,VWS V14.01,2013-10-22 04:27:00,
2013-10-21 23:28:00,32.4,28.4,29.97,NNW,338,0.0,0.0,85,0.00,,---,0.00,VWS V14.01,2013-10-22 04:28:00,
2013-10-21 23:29:00,32.4,28.4,29.97,NNW,338,0.0,0.0,85,0.00,,---,0.00,VWS V14.01,2013-10-22 04:29:00,
2013-10-21 23:30:00,32.3,28.0,29.97,NNW,338,0.0,0.0,84,0.00,,---,0.00,VWS V14.01,2013-10-22 04:30:00,
2013-10-21 23:31:00,32.3,28.0,29.97,NNW,338,0.0,0.0,84,0.00,,---,0.00,VWS V14.01,2013-10-22 04:31:00,
2013-10-21 23:32:00,32.3,28.0,29.97,NNW,338,0.0,0.0,84,0.00,,---,0.00,VWS V14.01,2013-10-22 04:32:00,
2013-10-21 23:33:00,32.3,28.3,29.97,NNW,338,0.0,0.0,85,0.00,,---,0.00,VWS V14.01,2013-10-22 04:33:00,
2013-10-21 23:34:00,32.3,28.3,29.97,NNW,338,0.0,0.0,85,0.00,,---,0.00,VWS V14.01,2013-10-22 04:34:00,
2013-10-21 23:35:00,32.3,28.3,29.97,NNW,338,0.0,0.0,85,0.00,,---,0.00,VWS V14.01,2013-10-22 04:35:00,
2013-10-21 23:36:00,32.3,28.3,29.97,NNW,338,0.0,0.0,85,0.00,,---,0.00,VWS V14.01,2013-10-22 04:36:00,
2013-10-21 23:37:00,32.2,28.2,29.97,NNW,338,0.0,0.0,85,0.00,,---,0.00,VWS V14.01,2013-10-22 04:37:00,
2013-10-21 23:38:00,32.2,28.2,29.97,NNW,338,0.0,0.0,85,0.00,,---,0.00,VWS V14.01,2013-10-22 04:38:00,
2013-10-21 23:39:00,32.2,27.9,29.97,NNW,338,0.0,0.0,84,0.00,,---,0.00,VWS V14.01,2013-10-22 04:39:00,
2013-10-21 23:40:00,32.1,27.8,29.97,NNW,338,0.0,0.0,84,0.00,,---,0.00,VWS V14.01,2013-10-22 04:40:00,
2013-10-21 23:41:00,32.1,27.8,29.97,NNW,338,0.0,0.0,84,0.00,,---,0.00,VWS V14.01,2013-10-22 04:41:00,
2013-10-21 23:42:00,32.1,27.8,29.97,NNW,338,0.0,0.0,84,0.00,,---,0.00,VWS V14.01,2013-10-22 04:42:00,
2013-10-21 23:43:00,32.1,27.8,29.97,NNW,338,0.0,0.0,84,0.00,,---,0.00,VWS V14.01,2013-10-22 04:43:00,
2013-10-21 23:44:00,32.1,27.8,29.97,NNW,338,0.0,0.0,84,0.00,,---,0.00,VWS V14.01,2013-10-22 04:44:00,
2013-10-21 23:45:00,32.1,28.1,29.97,NNW,338,0.0,0.0,85,0.00,,---,0.00,VWS V14.01,2013-10-22 04:45:00,
2013-10-21 23:46:00,32.0,28.0,29.97,NNW,338,0.0,0.0,85,0.00,,---,0.00,VWS V14.01,2013-10-22 04:46:00,
2013-10-21 23:47:00,32.0,28.0,29.97,NNW,338,0.0,0.0,85,0.00,,---,0.00,VWS V14.01,2013-10-22 04:47:00,
2013-10-21 23:48:00,32.0,28.0,29.97,NNW,338,0.0,0.0,85,0.00,,---,0.00,VWS V14.01,2013-10-22 04:48:00,
2013-10-21 23:49:00,32.0,28.0,29.97,NNW,338,0.0,0.0,85,0.00,,---,0.00,VWS V14.01,2013-10-22 04:49:00,
2013-10-21 23:50:00,31.9,27.9,29.97,NNW,338,0.0,0.0,85,0.00,,---,0.00,VWS V14.01,2013-10-22 04:50:00,
2013-10-21 23:51:00,32.0,28.0,29.97,NNW,338,0.0,0.0,85,0.00,,---,0.00,VWS V14.01,2013-10-22 04:51:00,
2013-10-21 23:52:00,31.9,27.9,29.97,NNW,338,0.0,0.0,85,0.00,,---,0.00,VWS V14.01,2013-10-22 04:52:00,
2013-10-21 23:53:00,31.9,27.9,29.97,NNW,338,0.0,0.0,85,0.00,,---,0.00,VWS V14.01,2013-10-22 04:53:00,
2013-10-21 23:54:00,31.9,27.6,29.97,NNW,338,0.0,0.0,84,0.00,,---,0.00,VWS V14.01,2013-10-22 04:54:00,
2013-10-21 23:55:00,31.9,27.6,29.97,NNW,338,0.0,0.0,84,0.00,,---,0.00,VWS V14.01,2013-10-22 04:55:00,
2013-10-21 23:56:00,31.8,27.5,29.97,NNW,338,0.0,0.0,84,0.00,,---,0.00,VWS V14.01,2013-10-22 04:56:00,
2013-10-21 23:57:00,31.8,27.5,29.97,NNW,338,0.0,0.0,84,0.00,,---,0.00,VWS V14.01,2013-10-22 04:57:00,
2013-10-21 23:58:00,31.8,27.5,29.97,NNW,338,0.0,0.0,84,0.00,,---,0.00,VWS V14.01,2013-10-22 04:58:00,
2013-10-21 23:59:00,31.7,27.4,29.97,NNW,338,0.0,0.0,84,0.00,,---,0.00,VWS V14.01,2013-10-22 04:59:00,